
Distance (Route):
Temperature : 0°C
Humidity : 0%
Pressure : 0hPa| Receiver | Date | Latitude | Longitude | Direction | Speed | Altitude | Climb | Temperature | Humidity | Pressure | Voltage | Killtimer | Uptime | BKT | XDATA |
|---|---|---|---|---|---|---|---|---|---|---|---|---|---|---|---|
| RDZ2B | 2026-09-03 01:43:01 | 41.41867 | 9.06374 | 148° | 60km/h | 9550m | -8.8m/s | 0°C | 0% | 0hPa | 0V | 00:00:00 | 00:00:00 | 00:00:00 | |
| RDZ2B | 2026-09-03 01:42:29 | 41.42282 | 9.05982 | 145° | 66km/h | 9843m | -8.9m/s | 0°C | 0% | 0hPa | 0V | 00:00:00 | 00:00:00 | 00:00:00 | |
| RDZ2B | 2026-09-03 01:41:59 | 41.42684 | 9.05572 | 148° | 75km/h | 10131m | -10.0m/s | 0°C | 0% | 0hPa | 0V | 00:00:00 | 00:00:00 | 00:00:00 | |
| RDZ2B | 2026-09-03 01:41:30 | 41.43122 | 9.05184 | 150° | 73km/h | 10438m | -10.4m/s | 0°C | 0% | 0hPa | 0V | 00:00:00 | 00:00:00 | 00:00:00 | |
| RDZBGO | 2026-09-03 01:40:54 | 41.43616 | 9.04723 | 141° | 64km/h | 10856m | -12.0m/s | 0°C | 0% | 0hPa | 0V | 00:00:00 | 00:00:00 | 00:00:00 | |
| RDZ2B | 2026-09-03 01:40:37 | 41.43848 | 9.04502 | 149° | 71km/h | 11059m | -11.9m/s | 0°C | 0% | 0hPa | 0V | 00:00:00 | 00:00:00 | 00:00:00 | |
| RDZBGO | 2026-09-03 01:40:21 | 41.44099 | 9.04310 | 154° | 73km/h | 11250m | -11.0m/s | 0°C | 0% | 0hPa | 0V | 00:00:00 | 00:00:00 | 00:00:00 | |
| RDZ2B | 2026-09-03 01:40:14 | 41.44217 | 9.04236 | 158° | 75km/h | 11336m | -11.9m/s | 0°C | 0% | 0hPa | 0V | 00:00:00 | 00:00:00 | 00:00:00 | |
| RDZBGO | 2026-09-03 01:39:59 | 41.44460 | 9.04101 | 162° | 66km/h | 11518m | -11.9m/s | 0°C | 0% | 0hPa | 0V | 00:00:00 | 00:00:00 | 00:00:00 | |
| RDZ2B | 2026-09-03 01:39:37 | 41.44773 | 9.03931 | 158° | 60km/h | 11784m | -12.2m/s | 0°C | 0% | 0hPa | 0V | 00:00:00 | 00:00:00 | 00:00:00 | |
| RDZBGO | 2026-09-03 01:39:16 | 41.45062 | 9.03747 | 156° | 60km/h | 12036m | -11.7m/s | 0°C | 0% | 0hPa | 0V | 00:00:00 | 00:00:00 | 00:00:00 | |
| RDZ2B | 2026-09-03 01:38:55 | 41.45393 | 9.03568 | 164° | 69km/h | 12292m | -11.4m/s | 0°C | 0% | 0hPa | 0V | 00:00:00 | 00:00:00 | 00:00:00 | |
| RDZBGO | 2026-09-03 01:38:53 | 41.45427 | 9.03554 | 164° | 69km/h | 12315m | -12.1m/s | 0°C | 0% | 0hPa | 0V | 00:00:00 | 00:00:00 | 00:00:00 | |
| RDZ2B | 2026-09-03 01:38:27 | 41.45860 | 9.03373 | 162° | 64km/h | 12635m | -12.1m/s | 0°C | 0% | 0hPa | 0V | 00:00:00 | 00:00:00 | 00:00:00 | |
| RDZ2B | 2026-09-03 01:38:07 | 41.46141 | 9.03219 | 162° | 58km/h | 12892m | -13.7m/s | 0°C | 0% | 0hPa | 0V | 00:00:00 | 00:00:00 | 00:00:00 | |
| RDZBGO | 2026-09-03 01:37:47 | 41.46398 | 9.03066 | 155° | 55km/h | 13155m | -12.9m/s | 0°C | 0% | 0hPa | 0V | 00:00:00 | 00:00:00 | 00:00:00 | |
| RDZ2B | 2026-09-03 01:37:34 | 41.46547 | 9.02945 | 150° | 49km/h | 13332m | -12.6m/s | 0°C | 0% | 0hPa | 0V | 00:00:00 | 00:00:00 | 00:00:00 | |
| RDZBGO | 2026-09-03 01:37:22 | 41.46677 | 9.02834 | 147° | 49km/h | 13497m | -13.5m/s | 0°C | 0% | 0hPa | 0V | 00:00:00 | 00:00:00 | 00:00:00 | |
| RDZ2B | 2026-09-03 01:37:10 | 41.46778 | 9.02703 | 131° | 47km/h | 13661m | -12.1m/s | 0°C | 0% | 0hPa | 0V | 00:00:00 | 00:00:00 | 00:00:00 | |
| RDZBGO | 2026-09-03 01:37:01 | 41.46850 | 9.02583 | 131° | 53km/h | 13788m | -14.5m/s | 0°C | 0% | 0hPa | 0V | 00:00:00 | 00:00:00 | 00:00:00 | |
| RDZ2B | 2026-09-03 01:36:47 | 41.47012 | 9.02386 | 147° | 69km/h | 13988m | -13.7m/s | 0°C | 0% | 0hPa | 0V | 00:00:00 | 00:00:00 | 00:00:00 | |
| RDZBGO | 2026-09-03 01:36:14 | 41.47487 | 9.01966 | 147° | 58km/h | 14470m | -15.0m/s | 0°C | 0% | 0hPa | 0V | 00:00:00 | 00:00:00 | 00:00:00 | |
| RDZBGO | 2026-09-03 01:35:49 | 41.47756 | 9.01644 | 136° | 62km/h | 14848m | -15.8m/s | 0°C | 0% | 0hPa | 0V | 00:00:00 | 00:00:00 | 00:00:00 | |
| RDZBGO | 2026-09-03 01:35:22 | 41.48107 | 9.01209 | 146° | 64km/h | 15268m | -16.7m/s | 0°C | 0% | 0hPa | 0V | 00:00:00 | 00:00:00 | 00:00:00 | |
| RDZBGO | 2026-09-03 01:34:34 | 41.48506 | 9.00619 | 114° | 42km/h | 16056m | -15.5m/s | 0°C | 0% | 0hPa | 0V | 00:00:00 | 00:00:00 | 00:00:00 | |
| RDZ2B | 2026-09-03 01:34:31 | 41.48518 | 9.00579 | 113° | 40km/h | 16108m | -17.9m/s | 0°C | 0% | 0hPa | 0V | 00:00:00 | 00:00:00 | 00:00:00 | |
| RDZBGO | 2026-09-03 01:34:13 | 41.48597 | 9.00355 | 117° | 27km/h | 16411m | -17.2m/s | 0°C | 0% | 0hPa | 0V | 00:00:00 | 00:00:00 | 00:00:00 | |
| RDZBGO | 2026-09-03 01:33:50 | 41.48596 | 9.00134 | 88° | 33km/h | 16830m | -18.1m/s | 0°C | 0% | 0hPa | 0V | 00:00:00 | 00:00:00 | 00:00:00 | |
| RDZ2B | 2026-09-03 01:33:47 | 41.48591 | 9.00097 | 86° | 37km/h | 16883m | -17.5m/s | 0°C | 0% | 0hPa | 0V | 00:00:00 | 00:00:00 | 00:00:00 | |
| RDZ2B | 2026-09-03 01:33:26 | 41.48630 | 8.99797 | 118° | 40km/h | 17271m | -15.4m/s | 0°C | 0% | 0hPa | 0V | 00:00:00 | 00:00:00 | 00:00:00 | |
| RDZ2B | 2026-09-03 01:33:06 | 41.48674 | 8.99521 | 100° | 51km/h | 17642m | -18.0m/s | 0°C | 0% | 0hPa | 0V | 00:00:00 | 00:00:00 | 00:00:00 | |
| RDZ2B | 2026-09-03 01:32:40 | 41.48757 | 8.99101 | 118° | 42km/h | 18138m | -19.5m/s | 0°C | 0% | 0hPa | 0V | 00:00:00 | 00:00:00 | 00:00:00 | |
| RDZ2B | 2026-09-03 01:32:19 | 41.48858 | 8.98862 | 128° | 27km/h | 18534m | -20.2m/s | 0°C | 0% | 0hPa | 0V | 00:00:00 | 00:00:00 | 00:00:00 | |
| RDZ2B | 2026-09-03 01:31:56 | 41.48846 | 8.98739 | 101° | 24km/h | 18974m | -20.2m/s | 0°C | 0% | 0hPa | 0V | 00:00:00 | 00:00:00 | 00:00:00 | |
| RDZ2B | 2026-09-03 01:31:27 | 41.48988 | 8.98527 | 147° | 20km/h | 19566m | -19.5m/s | 0°C | 0% | 0hPa | 0V | 00:00:00 | 00:00:00 | 00:00:00 | |
| RDZ2B | 2026-09-03 01:30:34 | 41.49210 | 8.98302 | 163° | 20km/h | 20655m | -20.4m/s | 0°C | 0% | 0hPa | 0V | 00:00:00 | 00:00:00 | 00:00:00 | |
| RDZ2B | 2026-09-03 01:29:07 | 41.49519 | 8.98365 | 279° | 26km/h | 22620m | -23.1m/s | 0°C | 0% | 0hPa | 0V | 00:00:00 | 00:00:00 | 00:00:00 | |
| RDZ2B | 2026-09-03 01:28:44 | 41.49437 | 8.98446 | 339° | 9km/h | 23153m | -23.3m/s | 0°C | 0% | 0hPa | 0V | 00:00:00 | 00:00:00 | 00:00:00 | |
| RDZ2B | 2026-09-03 01:28:22 | 41.49422 | 8.98490 | 304° | 13km/h | 23674m | -24.3m/s | 0°C | 0% | 0hPa | 0V | 00:00:00 | 00:00:00 | 00:00:00 | |
| IW2NTF | 2026-09-03 01:28:17 | 41.49416 | 8.98520 | 283° | 15km/h | 23835m | -23.5m/s | 0°C | 0% | 0hPa | 0V | 00:00:00 | 00:00:00 | 00:00:00 | |
| RDZBGO | 2026-09-03 01:28:02 | 41.49406 | 8.98583 | 303° | 18km/h | 24153m | -22.5m/s | 0°C | 0% | 0hPa | 0V | 00:00:00 | 00:00:00 | 00:00:00 | |
| RDZ2B | 2026-09-03 01:27:44 | 41.49395 | 8.98672 | 275° | 20km/h | 24571m | -23.7m/s | 0°C | 0% | 0hPa | 0V | 00:00:00 | 00:00:00 | 00:00:00 | |
| RDZBGO | 2026-09-03 01:27:33 | 41.49384 | 8.98708 | 0° | 0km/h | 24843m | -23.5m/s | 0°C | 0% | 0hPa | 0V | 00:00:00 | 00:00:00 | 00:00:00 | |
| RDZ2B | 2026-09-03 01:27:15 | 41.49378 | 8.98767 | 305° | 22km/h | 25277m | -22.4m/s | 0°C | 0% | 0hPa | 0V | 00:00:00 | 00:00:00 | 00:00:00 | |
| RDZBGO | 2026-09-03 01:27:13 | 41.49370 | 8.98777 | 329° | 20km/h | 25326m | -25.8m/s | 0°C | 0% | 0hPa | 0V | 00:00:00 | 00:00:00 | 00:00:00 | |
| RDZ2B | 2026-09-03 01:26:54 | 41.49368 | 8.98807 | 271° | 18km/h | 25816m | -26.8m/s | 0°C | 0% | 0hPa | 0V | 00:00:00 | 00:00:00 | 00:00:00 | |
| RDZ2B | 2026-09-03 01:26:32 | 41.49340 | 8.98873 | 271° | 16km/h | 26423m | -29.7m/s | 0°C | 0% | 0hPa | 0V | 00:00:00 | 00:00:00 | 00:00:00 | |
| RDZBGO | 2026-09-03 01:26:22 | 41.49332 | 8.98931 | 291° | 22km/h | 26710m | -30.1m/s | 0°C | 0% | 0hPa | 0V | 00:00:00 | 00:00:00 | 00:00:00 | |
| RDZBGO | 2026-09-03 01:26:00 | 41.49380 | 8.99017 | 231° | 35km/h | 27355m | -30.1m/s | 0°C | 0% | 0hPa | 0V | 00:00:00 | 00:00:00 | 00:00:00 | |
| RDZ2B | 2026-09-03 01:25:51 | 41.49426 | 8.99109 | 261° | 37km/h | 27624m | -29.9m/s | 0°C | 0% | 0hPa | 0V | 00:00:00 | 00:00:00 | 00:00:00 | |
| RDZ2B | 2026-09-03 01:23:56 | 41.49518 | 8.99816 | 315° | 18km/h | 31241m | -35.0m/s | 0°C | 0% | 0hPa | 0V | 00:00:00 | 00:00:00 | 00:00:00 | |
| RDZ2B | 2026-09-03 01:23:33 | 41.49505 | 8.99917 | 240° | 15km/h | 32164m | -42.6m/s | 0°C | 0% | 0hPa | 0V | 00:00:00 | 00:00:00 | 00:00:00 | |
| RDZ2B | 2026-09-03 01:23:11 | 41.49564 | 9.00124 | 240° | 37km/h | 32976m | -39.3m/s | 0°C | 0% | 0hPa | 0V | 00:00:00 | 00:00:00 | 00:00:00 | |
| RDZBGO | 2026-09-03 01:22:59 | 41.49598 | 9.00286 | 273° | 46km/h | 33484m | -39.0m/s | 0°C | 0% | 0hPa | 0V | 00:00:00 | 00:00:00 | 00:00:00 | |
| RDZ2B | 2026-09-03 01:22:50 | 41.49589 | 9.00407 | 280° | 46km/h | 33873m | -41.9m/s | 0°C | 0% | 0hPa | 0V | 00:00:00 | 00:00:00 | 00:00:00 | |
| RDZ2B | 2026-09-03 01:22:29 | 41.49608 | 9.00746 | 274° | 49km/h | 34822m | -44.9m/s | 0°C | 0% | 0hPa | 0V | 00:00:00 | 00:00:00 | 00:00:00 | |
| RDZBGO | 2026-09-03 01:22:22 | 41.49609 | 9.00840 | 280° | 29km/h | 35144m | -48.1m/s | 0°C | 0% | 0hPa | 0V | 00:00:00 | 00:00:00 | 00:00:00 | |
| RDZ2B | 2026-09-03 01:21:51 | 41.49599 | 9.01297 | 291° | 47km/h | 36491m | -42.7m/s | 0°C | 0% | 0hPa | 0V | 00:00:00 | 00:00:00 | 00:00:00 | |
| RDZ2B | 2026-09-03 01:21:26 | 41.49502 | 9.01708 | 287° | 44km/h | 37325m | 5.0m/s | 0°C | 0% | 0hPa | 0V | 00:00:00 | 00:00:00 | 00:00:00 | |
| RDZ2B | 2026-09-03 01:21:05 | 41.49416 | 9.02008 | 288° | 49km/h | 37230m | 4.4m/s | 0°C | 0% | 0hPa | 0V | 00:00:00 | 00:00:00 | 00:00:00 | |
| RDZBGO | 2026-09-03 01:20:43 | 41.49316 | 9.02449 | 288° | 62km/h | 37119m | 5.4m/s | 0°C | 0% | 0hPa | 0V | 00:00:00 | 00:00:00 | 00:00:00 | |
| RDZ2B | 2026-09-03 01:20:42 | 41.49311 | 9.02469 | 286° | 62km/h | 37114m | 5.4m/s | 0°C | 0% | 0hPa | 0V | 00:00:00 | 00:00:00 | 00:00:00 | |
| RDZBGO | 2026-09-03 01:20:21 | 41.49238 | 9.02878 | 286° | 57km/h | 36998m | 5.6m/s | 0°C | 0% | 0hPa | 0V | 00:00:00 | 00:00:00 | 00:00:00 | |
| RDZ2B | 2026-09-03 01:20:01 | 41.49164 | 9.03253 | 296° | 57km/h | 36882m | 6.0m/s | 0°C | 0% | 0hPa | 0V | 00:00:00 | 00:00:00 | 00:00:00 | |
| RDZBGO | 2026-09-03 01:20:00 | 41.49158 | 9.03270 | 298° | 53km/h | 36877m | 5.9m/s | 0°C | 0% | 0hPa | 0V | 00:00:00 | 00:00:00 | 00:00:00 | |
| RDZ2B | 2026-09-03 01:19:40 | 41.49078 | 9.03665 | 291° | 57km/h | 36759m | 5.9m/s | 0°C | 0% | 0hPa | 0V | 00:00:00 | 00:00:00 | 00:00:00 | |
| RDZ2B | 2026-09-03 01:19:20 | 41.49005 | 9.04055 | 278° | 57km/h | 36642m | 5.9m/s | 0°C | 0% | 0hPa | 0V | 00:00:00 | 00:00:00 | 00:00:00 | |
| RDZBGO | 2026-09-03 01:19:00 | 41.48982 | 9.04374 | 253° | 42km/h | 36521m | 7.1m/s | 0°C | 0% | 0hPa | 0V | 00:00:00 | 00:00:00 | 00:00:00 | |
| RDZ2B | 2026-09-03 01:18:58 | 41.48990 | 9.04403 | 248° | 49km/h | 36508m | 5.9m/s | 0°C | 0% | 0hPa | 0V | 00:00:00 | 00:00:00 | 00:00:00 | |
| RDZBGO | 2026-09-03 01:18:39 | 41.48992 | 9.04642 | 269° | 37km/h | 36399m | 5.8m/s | 0°C | 0% | 0hPa | 0V | 00:00:00 | 00:00:00 | 00:00:00 | |
| RDZ2B | 2026-09-03 01:18:37 | 41.48994 | 9.04672 | 265° | 51km/h | 36387m | 6.1m/s | 0°C | 0% | 0hPa | 0V | 00:00:00 | 00:00:00 | 00:00:00 | |
| RDZBGO | 2026-09-03 01:18:19 | 41.48998 | 9.04928 | 283° | 46km/h | 36287m | 5.2m/s | 0°C | 0% | 0hPa | 0V | 00:00:00 | 00:00:00 | 00:00:00 | |
| RDZ2B | 2026-09-03 01:18:17 | 41.48994 | 9.04957 | 275° | 42km/h | 36277m | 5.2m/s | 0°C | 0% | 0hPa | 0V | 00:00:00 | 00:00:00 | 00:00:00 | |
| RDZBGO | 2026-09-03 01:17:58 | 41.49026 | 9.05256 | 258° | 27km/h | 36177m | 4.9m/s | 0°C | 0% | 0hPa | 0V | 00:00:00 | 00:00:00 | 00:00:00 | |
| RDZ2B | 2026-09-03 01:17:57 | 41.49028 | 9.05266 | 252° | 31km/h | 36172m | 4.1m/s | 0°C | 0% | 0hPa | 0V | 00:00:00 | 00:00:00 | 00:00:00 | |
| RDZBGO | 2026-09-03 01:17:37 | 41.49070 | 9.05623 | 271° | 55km/h | 36075m | 5.0m/s | 0°C | 0% | 0hPa | 0V | 00:00:00 | 00:00:00 | 00:00:00 | |
| RDZ2B | 2026-09-03 01:17:35 | 41.49069 | 9.05653 | 277° | 38km/h | 36064m | 5.4m/s | 0°C | 0% | 0hPa | 0V | 00:00:00 | 00:00:00 | 00:00:00 | |
| RDZ2B | 2026-09-03 01:17:15 | 41.49098 | 9.05947 | 247° | 53km/h | 35964m | 4.8m/s | 0°C | 0% | 0hPa | 0V | 00:00:00 | 00:00:00 | 00:00:00 | |
| RDZBGO | 2026-09-03 01:16:53 | 41.49086 | 9.06283 | 287° | 44km/h | 35859m | 4.7m/s | 0°C | 0% | 0hPa | 0V | 00:00:00 | 00:00:00 | 00:00:00 | |
| RDZ2B | 2026-09-03 01:16:52 | 41.49082 | 9.06296 | 291° | 37km/h | 35854m | 4.8m/s | 0°C | 0% | 0hPa | 0V | 00:00:00 | 00:00:00 | 00:00:00 | |
| IW2NTF | 2026-09-03 01:16:48 | 41.49082 | 9.06423 | 277° | 62km/h | 35807m | 3.8m/s | 0°C | 0% | 0hPa | 0V | 00:00:00 | 00:00:00 | 00:00:00 | |
| IW2NTF | 2026-09-03 01:16:37 | 41.49069 | 9.06553 | 264° | 62km/h | 35755m | 4.6m/s | 0°C | 0% | 0hPa | 0V | 00:00:00 | 00:00:00 | 00:00:00 | |
| RDZBGO | 2026-09-03 01:16:33 | 41.49063 | 9.06515 | 251° | 49km/h | 35765m | 5.5m/s | 0°C | 0% | 0hPa | 0V | 00:00:00 | 00:00:00 | 00:00:00 | |
| RDZ2B | 2026-09-03 01:16:31 | 41.49069 | 9.06553 | 266° | 62km/h | 35755m | 4.6m/s | 0°C | 0% | 0hPa | 0V | 00:00:00 | 00:00:00 | 00:00:00 | |
| RDZBGO | 2026-09-03 01:16:12 | 41.49048 | 9.06812 | 285° | 38km/h | 35666m | 4.3m/s | 0°C | 0% | 0hPa | 0V | 00:00:00 | 00:00:00 | 00:00:00 | |
| RDZ2B | 2026-09-03 01:16:10 | 41.49045 | 9.06836 | 274° | 35km/h | 35656m | 4.9m/s | 0°C | 0% | 0hPa | 0V | 00:00:00 | 00:00:00 | 00:00:00 | |
| RDZBGO | 2026-09-03 01:15:51 | 41.49073 | 9.07097 | 256° | 60km/h | 35564m | 4.8m/s | 0°C | 0% | 0hPa | 0V | 00:00:00 | 00:00:00 | 00:00:00 | |
| RDZ2B | 2026-09-03 01:15:44 | 41.49051 | 9.07207 | 283° | 11km/h | 35531m | 6.0m/s | 0°C | 0% | 0hPa | 0V | 00:00:00 | 00:00:00 | 00:00:00 | |
| RDZBGO | 2026-09-03 01:15:29 | 41.49054 | 9.07364 | 256° | 26km/h | 35456m | 6.2m/s | 0°C | 0% | 0hPa | 0V | 00:00:00 | 00:00:00 | 00:00:00 | |
| RDZ2B | 2026-09-03 01:15:16 | 41.49048 | 9.07505 | 255° | 29km/h | 35382m | 5.6m/s | 0°C | 0% | 0hPa | 0V | 00:00:00 | 00:00:00 | 00:00:00 | |
| RDZBGO | 2026-09-03 01:15:08 | 41.49056 | 9.07596 | 314° | 38km/h | 35345m | 6.5m/s | 0°C | 0% | 0hPa | 0V | 00:00:00 | 00:00:00 | 00:00:00 | |
| RDZBGO | 2026-09-03 01:14:48 | 41.49035 | 9.07795 | 226° | 49km/h | 35241m | 3.4m/s | 0°C | 0% | 0hPa | 0V | 00:00:00 | 00:00:00 | 00:00:00 | |
| RDZ2B | 2026-09-03 01:14:27 | 41.49021 | 9.08095 | 272° | 38km/h | 35125m | 6.2m/s | 0°C | 0% | 0hPa | 0V | 00:00:00 | 00:00:00 | 00:00:00 | |
| RDZBGO | 2026-09-03 01:14:06 | 41.48996 | 9.08453 | 262° | 84km/h | 35007m | 5.1m/s | 0°C | 0% | 0hPa | 0V | 00:00:00 | 00:00:00 | 00:00:00 | |
| RDZ2B | 2026-09-03 01:13:59 | 41.48967 | 9.08592 | 302° | 33km/h | 34972m | 4.3m/s | 0°C | 0% | 0hPa | 0V | 00:00:00 | 00:00:00 | 00:00:00 | |
| RDZBGO | 2026-09-03 01:13:46 | 41.48956 | 9.08807 | 269° | 29km/h | 34904m | 5.5m/s | 0°C | 0% | 0hPa | 0V | 00:00:00 | 00:00:00 | 00:00:00 | |
| RDZ2B | 2026-09-03 01:13:34 | 41.48964 | 9.08998 | 265° | 29km/h | 34837m | 5.5m/s | 0°C | 0% | 0hPa | 0V | 00:00:00 | 00:00:00 | 00:00:00 | |
| RDZBGO | 2026-09-03 01:13:05 | 41.49068 | 9.09402 | 245° | 64km/h | 34673m | 5.1m/s | 0°C | 0% | 0hPa | 0V | 00:00:00 | 00:00:00 | 00:00:00 | |
| IW2NTF | 2026-09-03 01:12:59 | 41.49075 | 9.09554 | 231° | 42km/h | 34621m | 5.5m/s | 0°C | 0% | 0hPa | 0V | 00:00:00 | 00:00:00 | 00:00:00 | |
| RDZ2B | 2026-09-03 01:12:59 | 41.49068 | 9.09524 | 281° | 37km/h | 34638m | 5.6m/s | 0°C | 0% | 0hPa | 0V | 00:00:00 | 00:00:00 | 00:00:00 | |
| RDZBGO | 2026-09-03 01:12:44 | 41.49095 | 9.09777 | 260° | 37km/h | 34555m | 4.3m/s | 0°C | 0% | 0hPa | 0V | 00:00:00 | 00:00:00 | 00:00:00 | |
| RDZBGO | 2026-09-03 01:12:23 | 41.49170 | 9.10173 | 288° | 55km/h | 34444m | 7.5m/s | 0°C | 0% | 0hPa | 0V | 00:00:00 | 00:00:00 | 00:00:00 | |
| RDZ2B | 2026-09-03 01:12:20 | 41.49162 | 9.10210 | 260° | 26km/h | 34428m | 4.7m/s | 0°C | 0% | 0hPa | 0V | 00:00:00 | 00:00:00 | 00:00:00 | |
| RDZBGO | 2026-09-03 01:12:03 | 41.49225 | 9.10468 | 256° | 68km/h | 34335m | 5.4m/s | 0°C | 0% | 0hPa | 0V | 00:00:00 | 00:00:00 | 00:00:00 | |
| RDZBGO | 2026-09-03 01:11:41 | 41.49238 | 9.10746 | 230° | 46km/h | 34214m | 4.1m/s | 0°C | 0% | 0hPa | 0V | 00:00:00 | 00:00:00 | 00:00:00 | |
| RDZBGO | 2026-09-03 01:11:21 | 41.49206 | 9.10992 | 334° | 16km/h | 34109m | 5.9m/s | 0°C | 0% | 0hPa | 0V | 00:00:00 | 00:00:00 | 00:00:00 | |
| RDZ2B | 2026-09-03 01:11:09 | 41.49197 | 9.11131 | 307° | 7km/h | 34044m | 5.3m/s | 0°C | 0% | 0hPa | 0V | 00:00:00 | 00:00:00 | 00:00:00 | |
| RDZBGO | 2026-09-03 01:11:00 | 41.49212 | 9.11260 | 316° | 49km/h | 33996m | 6.2m/s | 0°C | 0% | 0hPa | 0V | 00:00:00 | 00:00:00 | 00:00:00 | |
| RDZ2B | 2026-09-03 01:10:45 | 41.49170 | 9.11412 | 218° | 5km/h | 33915m | 6.0m/s | 0°C | 0% | 0hPa | 0V | 00:00:00 | 00:00:00 | 00:00:00 | |
| RDZBGO | 2026-09-03 01:10:40 | 41.49186 | 9.11475 | 280° | 64km/h | 33888m | 5.5m/s | 0°C | 0% | 0hPa | 0V | 00:00:00 | 00:00:00 | 00:00:00 | |
| RDZ2B | 2026-09-03 01:10:23 | 41.49112 | 9.11661 | 338° | 16km/h | 33796m | 5.5m/s | 0°C | 0% | 0hPa | 0V | 00:00:00 | 00:00:00 | 00:00:00 | |
| RDZBGO | 2026-09-03 01:10:20 | 41.49118 | 9.11677 | 229° | 42km/h | 33780m | 5.6m/s | 0°C | 0% | 0hPa | 0V | 00:00:00 | 00:00:00 | 00:00:00 | |
| RDZ2B | 2026-09-03 01:10:01 | 41.49059 | 9.11935 | 25° | 4km/h | 33680m | 5.8m/s | 0°C | 0% | 0hPa | 0V | 00:00:00 | 00:00:00 | 00:00:00 | |
| RDZBGO | 2026-09-03 01:09:59 | 41.49071 | 9.11942 | 213° | 55km/h | 33665m | 8.7m/s | 0°C | 0% | 0hPa | 0V | 00:00:00 | 00:00:00 | 00:00:00 | |
| RDZBGO | 2026-09-03 01:09:39 | 41.49099 | 9.12187 | 227° | 89km/h | 33551m | 3.6m/s | 0°C | 0% | 0hPa | 0V | 00:00:00 | 00:00:00 | 00:00:00 | |
| RDZ2B | 2026-09-03 01:09:36 | 41.49113 | 9.12259 | 290° | 64km/h | 33540m | 8.6m/s | 0°C | 0% | 0hPa | 0V | 00:00:00 | 00:00:00 | 00:00:00 | |
| IW2NTF | 2026-09-03 01:09:35 | 41.49137 | 9.12342 | 259° | 97km/h | 33490m | 3m/s | 0°C | 0% | 0hPa | 0V | 00:00:00 | 00:00:00 | 00:00:00 | |
| RDZBGO | 2026-09-03 01:09:17 | 41.49163 | 9.12503 | 300° | 75km/h | 33432m | 10.1m/s | 0°C | 0% | 0hPa | 0V | 00:00:00 | 00:00:00 | 00:00:00 | |
| RDZ2B | 2026-09-03 01:09:15 | 41.49143 | 9.12527 | 329° | 31km/h | 33424m | -0.0m/s | 0°C | 0% | 0hPa | 0V | 00:00:00 | 00:00:00 | 00:00:00 | |
| RDZBGO | 2026-09-03 01:08:57 | 41.49221 | 9.12750 | 266° | 47km/h | 33333m | 7.0m/s | 0°C | 0% | 0hPa | 0V | 00:00:00 | 00:00:00 | 00:00:00 | |
| RDZ2B | 2026-09-03 01:08:46 | 41.49252 | 9.12886 | 244° | 49km/h | 33271m | 4.3m/s | 0°C | 0% | 0hPa | 0V | 00:00:00 | 00:00:00 | 00:00:00 | |
| RDZBGO | 2026-09-03 01:08:35 | 41.49286 | 9.13030 | 226° | 49km/h | 33207m | 2.7m/s | 0°C | 0% | 0hPa | 0V | 00:00:00 | 00:00:00 | 00:00:00 | |
| RDZ2B | 2026-09-03 01:08:25 | 41.49315 | 9.13140 | 223° | 66km/h | 33148m | 0.4m/s | 0°C | 0% | 0hPa | 0V | 00:00:00 | 00:00:00 | 00:00:00 | |
| RDZBGO | 2026-09-03 01:08:15 | 41.49337 | 9.13218 | 224° | 73km/h | 33088m | 5.5m/s | 0°C | 0% | 0hPa | 0V | 00:00:00 | 00:00:00 | 00:00:00 | |
| RDZ2B | 2026-09-03 01:08:04 | 41.49364 | 9.13293 | 217° | 58km/h | 33032m | 7.9m/s | 0°C | 0% | 0hPa | 0V | 00:00:00 | 00:00:00 | 00:00:00 | |
| RDZBGO | 2026-09-03 01:07:54 | 41.49391 | 9.13350 | 241° | 62km/h | 32975m | 4.4m/s | 0°C | 0% | 0hPa | 0V | 00:00:00 | 00:00:00 | 00:00:00 | |
| RDZ2B | 2026-09-03 01:07:40 | 41.49445 | 9.13457 | 167° | 31km/h | 32895m | 6.6m/s | 0°C | 0% | 0hPa | 0V | 00:00:00 | 00:00:00 | 00:00:00 | |
| RDZBGO | 2026-09-03 01:07:33 | 41.49430 | 9.13508 | 265° | 71km/h | 32854m | 4.6m/s | 0°C | 0% | 0hPa | 0V | 00:00:00 | 00:00:00 | 00:00:00 | |
| RDZ2B | 2026-09-03 01:07:18 | 41.49468 | 9.13667 | 188° | 24km/h | 32772m | 5.5m/s | 0°C | 0% | 0hPa | 0V | 00:00:00 | 00:00:00 | 00:00:00 | |
| RDZBGO | 2026-09-03 01:07:13 | 41.49445 | 9.13695 | 292° | 62km/h | 32744m | 4.9m/s | 0°C | 0% | 0hPa | 0V | 00:00:00 | 00:00:00 | 00:00:00 | |
| RDZ2B | 2026-09-03 01:06:57 | 41.49495 | 9.13925 | 207° | 57km/h | 32654m | 6.1m/s | 0°C | 0% | 0hPa | 0V | 00:00:00 | 00:00:00 | 00:00:00 | |
| RDZBGO | 2026-09-03 01:06:52 | 41.49506 | 9.13947 | 306° | 51km/h | 32627m | 6.0m/s | 0°C | 0% | 0hPa | 0V | 00:00:00 | 00:00:00 | 00:00:00 | |
| RDZ2B | 2026-09-03 01:06:36 | 41.49583 | 9.14175 | 174° | 57km/h | 32539m | 6.2m/s | 0°C | 0% | 0hPa | 0V | 00:00:00 | 00:00:00 | 00:00:00 | |
| RDZBGO | 2026-09-03 01:06:31 | 41.49579 | 9.14194 | 275° | 73km/h | 32511m | 2.4m/s | 0°C | 0% | 0hPa | 0V | 00:00:00 | 00:00:00 | 00:00:00 | |
| RDZ2B | 2026-09-03 01:06:16 | 41.49675 | 9.14319 | 81° | 22km/h | 32427m | 2.7m/s | 0°C | 0% | 0hPa | 0V | 00:00:00 | 00:00:00 | 00:00:00 | |
| RDZBGO | 2026-09-03 01:06:10 | 41.49687 | 9.14396 | 201° | 68km/h | 32391m | 7.3m/s | 0°C | 0% | 0hPa | 0V | 00:00:00 | 00:00:00 | 00:00:00 | |
| RDZ2B | 2026-09-03 01:05:52 | 41.49749 | 9.14490 | 198° | 47km/h | 32282m | 9.9m/s | 0°C | 0% | 0hPa | 0V | 00:00:00 | 00:00:00 | 00:00:00 | |
| RDZBGO | 2026-09-03 01:05:50 | 41.49772 | 9.14483 | 144° | 40km/h | 32269m | 3.6m/s | 0°C | 0% | 0hPa | 0V | 00:00:00 | 00:00:00 | 00:00:00 | |
| RDZBGO | 2026-09-03 01:05:27 | 41.49762 | 9.14530 | 313° | 49km/h | 32139m | 2.6m/s | 0°C | 0% | 0hPa | 0V | 00:00:00 | 00:00:00 | 00:00:00 | |
| RDZ2B | 2026-09-03 01:05:24 | 41.49769 | 9.14564 | 194° | 49km/h | 32118m | 7.5m/s | 0°C | 0% | 0hPa | 0V | 00:00:00 | 00:00:00 | 00:00:00 | |
| RDZBGO | 2026-09-03 01:05:06 | 41.49710 | 9.14600 | 123° | 16km/h | 32010m | 12.7m/s | 0°C | 0% | 0hPa | 0V | 00:00:00 | 00:00:00 | 00:00:00 | |
| RDZ2B | 2026-09-03 01:05:00 | 41.49695 | 9.14616 | 291° | 51km/h | 31978m | -4.3m/s | 0°C | 0% | 0hPa | 0V | 00:00:00 | 00:00:00 | 00:00:00 | |
| RDZBGO | 2026-09-03 01:04:45 | 41.49658 | 9.14682 | 86° | 27km/h | 31885m | -0.6m/s | 0°C | 0% | 0hPa | 0V | 00:00:00 | 00:00:00 | 00:00:00 | |
| RDZ2B | 2026-09-03 01:04:40 | 41.49654 | 9.14731 | 281° | 57km/h | 31855m | 0.1m/s | 0°C | 0% | 0hPa | 0V | 00:00:00 | 00:00:00 | 00:00:00 | |
| RDZBGO | 2026-09-03 01:04:22 | 41.49637 | 9.14794 | 242° | 31km/h | 31747m | 7.5m/s | 0°C | 0% | 0hPa | 0V | 00:00:00 | 00:00:00 | 00:00:00 | |
| RDZ2B | 2026-09-03 01:04:19 | 41.49656 | 9.14817 | 211° | 27km/h | 31729m | 4.6m/s | 0°C | 0% | 0hPa | 0V | 00:00:00 | 00:00:00 | 00:00:00 | |
| RDZBGO | 2026-09-03 01:04:01 | 41.49685 | 9.14878 | 150° | 33km/h | 31621m | 4.1m/s | 0°C | 0% | 0hPa | 0V | 00:00:00 | 00:00:00 | 00:00:00 | |
| RDZ2B | 2026-09-03 01:03:57 | 41.49710 | 9.14912 | 277° | 49km/h | 31599m | 5.6m/s | 0°C | 0% | 0hPa | 0V | 00:00:00 | 00:00:00 | 00:00:00 | |
| RDZBGO | 2026-09-03 01:03:40 | 41.49703 | 9.14985 | 313° | 53km/h | 31499m | 4.0m/s | 0°C | 0% | 0hPa | 0V | 00:00:00 | 00:00:00 | 00:00:00 | |
| RDZ2B | 2026-09-03 01:03:36 | 41.49680 | 9.14971 | 160° | 27km/h | 31474m | 3.4m/s | 0°C | 0% | 0hPa | 0V | 00:00:00 | 00:00:00 | 00:00:00 | |
| RDZBGO | 2026-09-03 01:03:20 | 41.49638 | 9.15030 | 193° | 31km/h | 31376m | 4.7m/s | 0°C | 0% | 0hPa | 0V | 00:00:00 | 00:00:00 | 00:00:00 | |
| RDZ2B | 2026-09-03 01:03:14 | 41.49608 | 9.15070 | 70° | 40km/h | 31338m | 4.9m/s | 0°C | 0% | 0hPa | 0V | 00:00:00 | 00:00:00 | 00:00:00 | |
| RDZBGO | 2026-09-03 01:02:59 | 41.49537 | 9.15144 | 346° | 38km/h | 31263m | 2.9m/s | 0°C | 0% | 0hPa | 0V | 00:00:00 | 00:00:00 | 00:00:00 | |
| RDZ2B | 2026-09-03 01:02:52 | 41.49520 | 9.15158 | 335° | 80km/h | 31211m | 11.1m/s | 0°C | 0% | 0hPa | 0V | 00:00:00 | 00:00:00 | 00:00:00 | |
| RDZBGO | 2026-09-03 01:02:38 | 41.49440 | 9.15238 | 261° | 26km/h | 31134m | 11.1m/s | 0°C | 0% | 0hPa | 0V | 00:00:00 | 00:00:00 | 00:00:00 | |
| RDZ2B | 2026-09-03 01:02:32 | 41.49434 | 9.15269 | 350° | 51km/h | 31097m | 4.3m/s | 0°C | 0% | 0hPa | 0V | 00:00:00 | 00:00:00 | 00:00:00 | |
| RDZBGO | 2026-09-03 01:02:17 | 41.49416 | 9.15414 | 196° | 22km/h | 31019m | 5.1m/s | 0°C | 0% | 0hPa | 0V | 00:00:00 | 00:00:00 | 00:00:00 | |
| RDZ2B | 2026-09-03 01:02:10 | 41.49404 | 9.15473 | 225° | 68km/h | 30973m | 0.5m/s | 0°C | 0% | 0hPa | 0V | 00:00:00 | 00:00:00 | 00:00:00 | |
| RDZBGO | 2026-09-03 01:01:57 | 41.49412 | 9.15568 | 354° | 44km/h | 30898m | 3.3m/s | 0°C | 0% | 0hPa | 0V | 00:00:00 | 00:00:00 | 00:00:00 | |
| RDZ2B | 2026-09-03 01:01:49 | 41.49430 | 9.15642 | 14° | 16km/h | 30852m | 7.7m/s | 0°C | 0% | 0hPa | 0V | 00:00:00 | 00:00:00 | 00:00:00 | |
| RDZBGO | 2026-09-03 01:01:36 | 41.49437 | 9.15769 | 241° | 71km/h | 30783m | 2.5m/s | 0°C | 0% | 0hPa | 0V | 00:00:00 | 00:00:00 | 00:00:00 | |
| RDZ2B | 2026-09-03 01:01:29 | 41.49444 | 9.15803 | 269° | 68km/h | 30743m | 8.0m/s | 0°C | 0% | 0hPa | 0V | 00:00:00 | 00:00:00 | 00:00:00 | |
| RDZBGO | 2026-09-03 01:01:15 | 41.49468 | 9.15860 | 347° | 37km/h | 30667m | 3.4m/s | 0°C | 0% | 0hPa | 0V | 00:00:00 | 00:00:00 | 00:00:00 | |
| RDZ2B | 2026-09-03 01:01:09 | 41.49478 | 9.15916 | 121° | 31km/h | 30631m | 8.1m/s | 0°C | 0% | 0hPa | 0V | 00:00:00 | 00:00:00 | 00:00:00 | |
| RDZBGO | 2026-09-03 01:00:53 | 41.49491 | 9.15999 | 140° | 38km/h | 30539m | 8.5m/s | 0°C | 0% | 0hPa | 0V | 00:00:00 | 00:00:00 | 00:00:00 | |
| RDZBGO | 2026-09-03 01:00:31 | 41.49542 | 9.16130 | 221° | 62km/h | 30419m | -0.3m/s | 0°C | 0% | 0hPa | 0V | 00:00:00 | 00:00:00 | 00:00:00 | |
| RDZ2B | 2026-09-03 01:00:26 | 41.49545 | 9.16139 | 302° | 18km/h | 30397m | -2.2m/s | 0°C | 0% | 0hPa | 0V | 00:00:00 | 00:00:00 | 00:00:00 | |
| RDZBGO | 2026-09-03 01:00:08 | 41.49562 | 9.16242 | 31° | 20km/h | 30293m | 0.7m/s | 0°C | 0% | 0hPa | 0V | 00:00:00 | 00:00:00 | 00:00:00 | |
| RDZBGO | 2026-09-03 00:59:46 | 41.49531 | 9.16390 | 297° | 71km/h | 30171m | 3.8m/s | 0°C | 0% | 0hPa | 0V | 00:00:00 | 00:00:00 | 00:00:00 | |
| RDZ2B | 2026-09-03 00:59:42 | 41.49545 | 9.16438 | 149° | 27km/h | 30150m | 4.7m/s | 0°C | 0% | 0hPa | 0V | 00:00:00 | 00:00:00 | 00:00:00 | |
| RDZBGO | 2026-09-03 00:59:25 | 41.49510 | 9.16580 | 65° | 20km/h | 30055m | 5.8m/s | 0°C | 0% | 0hPa | 0V | 00:00:00 | 00:00:00 | 00:00:00 | |
| RDZ2B | 2026-09-03 00:59:18 | 41.49496 | 9.16664 | 238° | 26km/h | 30019m | 6.6m/s | 0°C | 0% | 0hPa | 0V | 00:00:00 | 00:00:00 | 00:00:00 | |
| RDZBGO | 2026-09-03 00:59:05 | 41.49501 | 9.16753 | 336° | 16km/h | 29948m | 6.1m/s | 0°C | 0% | 0hPa | 0V | 00:00:00 | 00:00:00 | 00:00:00 | |
| RDZ2B | 2026-09-03 00:58:58 | 41.49503 | 9.16830 | 218° | 35km/h | 29911m | 4.2m/s | 0°C | 0% | 0hPa | 0V | 00:00:00 | 00:00:00 | 00:00:00 | |
| RDZBGO | 2026-09-03 00:58:44 | 41.49517 | 9.16916 | 317° | 29km/h | 29837m | 5.2m/s | 0°C | 0% | 0hPa | 0V | 00:00:00 | 00:00:00 | 00:00:00 | |
| RDZ2B | 2026-09-03 00:58:35 | 41.49536 | 9.16984 | 340° | 22km/h | 29791m | 5.2m/s | 0°C | 0% | 0hPa | 0V | 00:00:00 | 00:00:00 | 00:00:00 | |
| RDZBGO | 2026-09-03 00:58:24 | 41.49533 | 9.17064 | 302° | 44km/h | 29734m | 3.4m/s | 0°C | 0% | 0hPa | 0V | 00:00:00 | 00:00:00 | 00:00:00 | |
| RDZ2B | 2026-09-03 00:58:13 | 41.49546 | 9.17150 | 252° | 46km/h | 29673m | 6.1m/s | 0°C | 0% | 0hPa | 0V | 00:00:00 | 00:00:00 | 00:00:00 | |
| RDZBGO | 2026-09-03 00:58:03 | 41.49563 | 9.17212 | 246° | 46km/h | 29618m | 6.1m/s | 0°C | 0% | 0hPa | 0V | 00:00:00 | 00:00:00 | 00:00:00 | |
| RDZ2B | 2026-09-03 00:57:52 | 41.49575 | 9.17287 | 238° | 42km/h | 29561m | 5.0m/s | 0°C | 0% | 0hPa | 0V | 00:00:00 | 00:00:00 | 00:00:00 | |
| RDZBGO | 2026-09-03 00:57:40 | 41.49586 | 9.17375 | 165° | 4km/h | 29504m | 3.2m/s | 0°C | 0% | 0hPa | 0V | 00:00:00 | 00:00:00 | 00:00:00 | |
| RDZ2B | 2026-09-03 00:57:32 | 41.49569 | 9.17453 | 202° | 11km/h | 29461m | -0.2m/s | 0°C | 0% | 0hPa | 0V | 00:00:00 | 00:00:00 | 00:00:00 | |
| RDZBGO | 2026-09-03 00:57:20 | 41.49533 | 9.17564 | 311° | 71km/h | 29389m | 4.3m/s | 0°C | 0% | 0hPa | 0V | 00:00:00 | 00:00:00 | 00:00:00 | |
| RDZ2B | 2026-09-03 00:57:08 | 41.49521 | 9.17688 | 214° | 51km/h | 29323m | 4.6m/s | 0°C | 0% | 0hPa | 0V | 00:00:00 | 00:00:00 | 00:00:00 | |
| RDZBGO | 2026-09-03 00:57:00 | 41.49513 | 9.17756 | 219° | 62km/h | 29281m | 7.3m/s | 0°C | 0% | 0hPa | 0V | 00:00:00 | 00:00:00 | 00:00:00 | |
| RDZ2B | 2026-09-03 00:56:47 | 41.49506 | 9.17839 | 290° | 55km/h | 29214m | 1.1m/s | 0°C | 0% | 0hPa | 0V | 00:00:00 | 00:00:00 | 00:00:00 | |
| RDZBGO | 2026-09-03 00:56:39 | 41.49525 | 9.17909 | 296° | 57km/h | 29170m | 0.7m/s | 0°C | 0% | 0hPa | 0V | 00:00:00 | 00:00:00 | 00:00:00 | |
| RDZ2B | 2026-09-03 00:56:24 | 41.49562 | 9.17997 | 30° | 13km/h | 29087m | 7.5m/s | 0°C | 0% | 0hPa | 0V | 00:00:00 | 00:00:00 | 00:00:00 | |
| RDZBGO | 2026-09-03 00:56:18 | 41.49562 | 9.18059 | 180° | 55km/h | 29051m | 4.7m/s | 0°C | 0% | 0hPa | 0V | 00:00:00 | 00:00:00 | 00:00:00 | |
| RDZ2B | 2026-09-03 00:56:03 | 41.49585 | 9.18150 | 175° | 60km/h | 28966m | 7.0m/s | 0°C | 0% | 0hPa | 0V | 00:00:00 | 00:00:00 | 00:00:00 | |
| RDZBGO | 2026-09-03 00:55:58 | 41.49587 | 9.18166 | 280° | 73km/h | 28940m | 2.2m/s | 0°C | 0% | 0hPa | 0V | 00:00:00 | 00:00:00 | 00:00:00 | |
| RDZ2B | 2026-09-03 00:55:40 | 41.49631 | 9.18295 | 175° | 38km/h | 28841m | 12.1m/s | 0°C | 0% | 0hPa | 0V | 00:00:00 | 00:00:00 | 00:00:00 | |
| RDZBGO | 2026-09-03 00:55:33 | 41.49646 | 9.18335 | 236° | 38km/h | 28804m | 3.2m/s | 0°C | 0% | 0hPa | 0V | 00:00:00 | 00:00:00 | 00:00:00 | |
| RDZ2B | 2026-09-03 00:55:18 | 41.49697 | 9.18403 | 243° | 46km/h | 28715m | 1.2m/s | 0°C | 0% | 0hPa | 0V | 00:00:00 | 00:00:00 | 00:00:00 | |
| RDZBGO | 2026-09-03 00:55:09 | 41.49733 | 9.18453 | 223° | 37km/h | 28668m | 3.8m/s | 0°C | 0% | 0hPa | 0V | 00:00:00 | 00:00:00 | 00:00:00 | |
| RDZ2B | 2026-09-03 00:54:58 | 41.49772 | 9.18500 | 116° | 24km/h | 28602m | 0.3m/s | 0°C | 0% | 0hPa | 0V | 00:00:00 | 00:00:00 | 00:00:00 | |
| RDZBGO | 2026-09-03 00:54:48 | 41.49820 | 9.18561 | 176° | 16km/h | 28552m | -2.1m/s | 0°C | 0% | 0hPa | 0V | 00:00:00 | 00:00:00 | 00:00:00 | |
| RDZ2B | 2026-09-03 00:54:35 | 41.49886 | 9.18662 | 272° | 40km/h | 28474m | 3.7m/s | 0°C | 0% | 0hPa | 0V | 00:00:00 | 00:00:00 | 00:00:00 | |
| RDZBGO | 2026-09-03 00:54:28 | 41.49934 | 9.18686 | 259° | 11km/h | 28435m | 8.9m/s | 0°C | 0% | 0hPa | 0V | 00:00:00 | 00:00:00 | 00:00:00 | |
| RDZ2B | 2026-09-03 00:54:14 | 41.50000 | 9.18783 | 190° | 66km/h | 28359m | 6.5m/s | 0°C | 0% | 0hPa | 0V | 00:00:00 | 00:00:00 | 00:00:00 | |
| RDZBGO | 2026-09-03 00:54:06 | 41.50048 | 9.18809 | 164° | 57km/h | 28313m | 1.4m/s | 0°C | 0% | 0hPa | 0V | 00:00:00 | 00:00:00 | 00:00:00 | |
| RDZ2B | 2026-09-03 00:53:49 | 41.50133 | 9.18891 | 139° | 33km/h | 28217m | 5.1m/s | 0°C | 0% | 0hPa | 0V | 00:00:00 | 00:00:00 | 00:00:00 | |
| RDZBGO | 2026-09-03 00:53:42 | 41.50173 | 9.18934 | 227° | 16km/h | 28182m | 6.2m/s | 0°C | 0% | 0hPa | 0V | 00:00:00 | 00:00:00 | 00:00:00 | |
| RDZ2B | 2026-09-03 00:53:29 | 41.50212 | 9.18977 | 154° | 38km/h | 28121m | 3.7m/s | 0°C | 0% | 0hPa | 0V | 00:00:00 | 00:00:00 | 00:00:00 | |
| RDZ2B | 2026-09-03 00:52:59 | 41.50256 | 9.19115 | 155° | 33km/h | 27957m | 1.0m/s | 0°C | 0% | 0hPa | 0V | 00:00:00 | 00:00:00 | 00:00:00 | |
| RDZBGO | 2026-09-03 00:52:55 | 41.50262 | 9.19162 | 320° | 58km/h | 27934m | 5.1m/s | 0°C | 0% | 0hPa | 0V | 00:00:00 | 00:00:00 | 00:00:00 | |
| RDZ2B | 2026-09-03 00:52:37 | 41.50233 | 9.19286 | 46° | 29km/h | 27837m | 6.2m/s | 0°C | 0% | 0hPa | 0V | 00:00:00 | 00:00:00 | 00:00:00 | |
| RDZBGO | 2026-09-03 00:52:33 | 41.50247 | 9.19303 | 255° | 68km/h | 27817m | 6.9m/s | 0°C | 0% | 0hPa | 0V | 00:00:00 | 00:00:00 | 00:00:00 | |
| RDZ2B | 2026-09-03 00:52:14 | 41.50248 | 9.19518 | 153° | 18km/h | 27712m | 3.9m/s | 0°C | 0% | 0hPa | 0V | 00:00:00 | 00:00:00 | 00:00:00 | |
| RDZBGO | 2026-09-03 00:52:09 | 41.50283 | 9.19542 | 241° | 75km/h | 27694m | 1.3m/s | 0°C | 0% | 0hPa | 0V | 00:00:00 | 00:00:00 | 00:00:00 | |
| RDZ2B | 2026-09-03 00:51:49 | 41.50363 | 9.19717 | 164° | 47km/h | 27587m | 1.9m/s | 0°C | 0% | 0hPa | 0V | 00:00:00 | 00:00:00 | 00:00:00 | |
| RDZBGO | 2026-09-03 00:51:47 | 41.50393 | 9.19728 | 224° | 82km/h | 27576m | 7.8m/s | 0°C | 0% | 0hPa | 0V | 00:00:00 | 00:00:00 | 00:00:00 | |
| RDZ2B | 2026-09-03 00:51:27 | 41.50500 | 9.19882 | 141° | 51km/h | 27466m | 3.3m/s | 0°C | 0% | 0hPa | 0V | 00:00:00 | 00:00:00 | 00:00:00 | |
| RDZ2B | 2026-09-03 00:51:06 | 41.50600 | 9.19993 | 10° | 15km/h | 27360m | 6.4m/s | 0°C | 0% | 0hPa | 0V | 00:00:00 | 00:00:00 | 00:00:00 | |
| RDZBGO | 2026-09-03 00:50:45 | 41.50667 | 9.20019 | 293° | 40km/h | 27246m | 0.9m/s | 0°C | 0% | 0hPa | 0V | 00:00:00 | 00:00:00 | 00:00:00 | |
| RDZ2B | 2026-09-03 00:50:42 | 41.50653 | 9.20014 | 98° | 44km/h | 27230m | 4.9m/s | 0°C | 0% | 0hPa | 0V | 00:00:00 | 00:00:00 | 00:00:00 | |
| RDZBGO | 2026-09-03 00:50:24 | 41.50692 | 9.20042 | 216° | 49km/h | 27133m | 8.7m/s | 0°C | 0% | 0hPa | 0V | 00:00:00 | 00:00:00 | 00:00:00 | |
| RDZBGO | 2026-09-03 00:50:03 | 41.50656 | 9.20083 | 153° | 27km/h | 27022m | 3.5m/s | 0°C | 0% | 0hPa | 0V | 00:00:00 | 00:00:00 | 00:00:00 | |
| RDZ2B | 2026-09-03 00:49:58 | 41.50644 | 9.20129 | 2° | 44km/h | 26996m | 8.2m/s | 0°C | 0% | 0hPa | 0V | 00:00:00 | 00:00:00 | 00:00:00 | |
| RDZBGO | 2026-09-03 00:49:42 | 41.50582 | 9.20185 | 30° | 18km/h | 26906m | 6.7m/s | 0°C | 0% | 0hPa | 0V | 00:00:00 | 00:00:00 | 00:00:00 | |
| RDZ2B | 2026-09-03 00:49:34 | 41.50567 | 9.20226 | 131° | 13km/h | 26859m | 2.8m/s | 0°C | 0% | 0hPa | 0V | 00:00:00 | 00:00:00 | 00:00:00 | |
| RDZBGO | 2026-09-03 00:49:22 | 41.50556 | 9.20310 | 308° | 57km/h | 26793m | 4.8m/s | 0°C | 0% | 0hPa | 0V | 00:00:00 | 00:00:00 | 00:00:00 | |
| RDZ2B | 2026-09-03 00:49:07 | 41.50534 | 9.20370 | 214° | 26km/h | 26714m | 4.1m/s | 0°C | 0% | 0hPa | 0V | 00:00:00 | 00:00:00 | 00:00:00 | |
| RDZBGO | 2026-09-03 00:49:02 | 41.50514 | 9.20421 | 354° | 46km/h | 26690m | 2.5m/s | 0°C | 0% | 0hPa | 0V | 00:00:00 | 00:00:00 | 00:00:00 | |
| RDZ2B | 2026-09-03 00:48:44 | 41.50488 | 9.20496 | 19° | 27km/h | 26597m | 0.4m/s | 0°C | 0% | 0hPa | 0V | 00:00:00 | 00:00:00 | 00:00:00 | |
| RDZBGO | 2026-09-03 00:48:40 | 41.50485 | 9.20526 | 255° | 47km/h | 26573m | 1.1m/s | 0°C | 0% | 0hPa | 0V | 00:00:00 | 00:00:00 | 00:00:00 | |
| RDZ2B | 2026-09-03 00:48:19 | 41.50402 | 9.20608 | 69° | 31km/h | 26465m | 4.1m/s | 0°C | 0% | 0hPa | 0V | 00:00:00 | 00:00:00 | 00:00:00 | |
| RDZBGO | 2026-09-03 00:48:17 | 41.50386 | 9.20596 | 1° | 51km/h | 26457m | 5.5m/s | 0°C | 0% | 0hPa | 0V | 00:00:00 | 00:00:00 | 00:00:00 | |
| RDZ2B | 2026-09-03 00:47:57 | 41.50323 | 9.20661 | 134° | 35km/h | 26355m | 7.6m/s | 0°C | 0% | 0hPa | 0V | 00:00:00 | 00:00:00 | 00:00:00 | |
| RDZ2B | 2026-09-03 00:47:36 | 41.50275 | 9.20675 | 203° | 33km/h | 26244m | 0.7m/s | 0°C | 0% | 0hPa | 0V | 00:00:00 | 00:00:00 | 00:00:00 | |
| RDZ2B | 2026-09-03 00:47:14 | 41.50203 | 9.20727 | 211° | 37km/h | 26124m | 3.3m/s | 0°C | 0% | 0hPa | 0V | 00:00:00 | 00:00:00 | 00:00:00 | |
| RDZBGO | 2026-09-03 00:47:11 | 41.50213 | 9.20718 | 90° | 40km/h | 26113m | 7.1m/s | 0°C | 0% | 0hPa | 0V | 00:00:00 | 00:00:00 | 00:00:00 | |
| RDZ2B | 2026-09-03 00:46:49 | 41.50163 | 9.20796 | 59° | 42km/h | 25994m | 3.8m/s | 0°C | 0% | 0hPa | 0V | 00:00:00 | 00:00:00 | 00:00:00 | |
| RDZBGO | 2026-09-03 00:46:29 | 41.50131 | 9.20883 | 225° | 33km/h | 25899m | 1.3m/s | 0°C | 0% | 0hPa | 0V | 00:00:00 | 00:00:00 | 00:00:00 | |
| RDZ2B | 2026-09-03 00:46:27 | 41.50141 | 9.20882 | 102° | 35km/h | 25885m | 10.4m/s | 0°C | 0% | 0hPa | 0V | 00:00:00 | 00:00:00 | 00:00:00 | |
| RDZ2B | 2026-09-03 00:46:08 | 41.50145 | 9.20945 | 195° | 47km/h | 25785m | 3.0m/s | 0°C | 0% | 0hPa | 0V | 00:00:00 | 00:00:00 | 00:00:00 | |
| RDZBGO | 2026-09-03 00:45:45 | 41.50173 | 9.20944 | 171° | 40km/h | 25671m | 2.7m/s | 0°C | 0% | 0hPa | 0V | 00:00:00 | 00:00:00 | 00:00:00 | |
| RDZBGO | 2026-09-03 00:45:25 | 41.50125 | 9.20906 | 8° | 57km/h | 25566m | 4.3m/s | 0°C | 0% | 0hPa | 0V | 00:00:00 | 00:00:00 | 00:00:00 | |
| RDZ2B | 2026-09-03 00:45:23 | 41.50102 | 9.20917 | 312° | 44km/h | 25558m | 4.8m/s | 0°C | 0% | 0hPa | 0V | 00:00:00 | 00:00:00 | 00:00:00 | |
| RDZ2B | 2026-09-03 00:44:42 | 41.49946 | 9.21095 | 272° | 26km/h | 25351m | 7.3m/s | 0°C | 0% | 0hPa | 0V | 00:00:00 | 00:00:00 | 00:00:00 | |
| RDZBGO | 2026-09-03 00:44:23 | 41.49936 | 9.21206 | 9° | 4km/h | 25254m | 2.1m/s | 0°C | 0% | 0hPa | 0V | 00:00:00 | 00:00:00 | 00:00:00 | |
| RDZ2B | 2026-09-03 00:44:21 | 41.49930 | 9.21219 | 295° | 46km/h | 25241m | 8.0m/s | 0°C | 0% | 0hPa | 0V | 00:00:00 | 00:00:00 | 00:00:00 | |
| RDZBGO | 2026-09-03 00:44:02 | 41.49945 | 9.21334 | 152° | 20km/h | 25143m | 4.8m/s | 0°C | 0% | 0hPa | 0V | 00:00:00 | 00:00:00 | 00:00:00 | |
| RDZ2B | 2026-09-03 00:44:00 | 41.49943 | 9.21327 | 4° | 20km/h | 25134m | 6.5m/s | 0°C | 0% | 0hPa | 0V | 00:00:00 | 00:00:00 | 00:00:00 | |
| RDZBGO | 2026-09-03 00:43:41 | 41.49929 | 9.21399 | 218° | 5km/h | 25036m | 7.8m/s | 0°C | 0% | 0hPa | 0V | 00:00:00 | 00:00:00 | 00:00:00 | |
| RDZ2B | 2026-09-03 00:43:39 | 41.49932 | 9.21392 | 102° | 16km/h | 25023m | 2.4m/s | 0°C | 0% | 0hPa | 0V | 00:00:00 | 00:00:00 | 00:00:00 | |
| RDZBGO | 2026-09-03 00:43:21 | 41.49892 | 9.21385 | 307° | 33km/h | 24931m | 3.0m/s | 0°C | 0% | 0hPa | 0V | 00:00:00 | 00:00:00 | 00:00:00 | |
| RDZ2B | 2026-09-03 00:43:17 | 41.49897 | 9.21392 | 91° | 22km/h | 24911m | 1.8m/s | 0°C | 0% | 0hPa | 0V | 00:00:00 | 00:00:00 | 00:00:00 | |
| RDZBGO | 2026-09-03 00:43:01 | 41.49871 | 9.21416 | 35° | 33km/h | 24827m | 2.9m/s | 0°C | 0% | 0hPa | 0V | 00:00:00 | 00:00:00 | 00:00:00 | |
| RDZ2B | 2026-09-03 00:42:54 | 41.49864 | 9.21449 | 32° | 22km/h | 24789m | 7.3m/s | 0°C | 0% | 0hPa | 0V | 00:00:00 | 00:00:00 | 00:00:00 | |
| RDZBGO | 2026-09-03 00:42:38 | 41.49832 | 9.21523 | 276° | 31km/h | 24709m | 6.4m/s | 0°C | 0% | 0hPa | 0V | 00:00:00 | 00:00:00 | 00:00:00 | |
| RDZ2B | 2026-09-03 00:42:33 | 41.49810 | 9.21560 | 227° | 20km/h | 24681m | 6.8m/s | 0°C | 0% | 0hPa | 0V | 00:00:00 | 00:00:00 | 00:00:00 | |
| RDZBGO | 2026-09-03 00:42:17 | 41.49791 | 9.21660 | 237° | 31km/h | 24598m | 2.7m/s | 0°C | 0% | 0hPa | 0V | 00:00:00 | 00:00:00 | 00:00:00 | |
| RDZ2B | 2026-09-03 00:42:13 | 41.49779 | 9.21692 | 348° | 22km/h | 24579m | 3.8m/s | 0°C | 0% | 0hPa | 0V | 00:00:00 | 00:00:00 | 00:00:00 | |
| RDZBGO | 2026-09-03 00:41:55 | 41.49792 | 9.21787 | 231° | 38km/h | 24487m | 4.4m/s | 0°C | 0% | 0hPa | 0V | 00:00:00 | 00:00:00 | 00:00:00 | |
| RDZ2B | 2026-09-03 00:41:52 | 41.49790 | 9.21819 | 323° | 27km/h | 24472m | 1.4m/s | 0°C | 0% | 0hPa | 0V | 00:00:00 | 00:00:00 | 00:00:00 | |
| RDZBGO | 2026-09-03 00:41:34 | 41.49810 | 9.21894 | 163° | 22km/h | 24384m | 8.8m/s | 0°C | 0% | 0hPa | 0V | 00:00:00 | 00:00:00 | 00:00:00 | |
| RDZ2B | 2026-09-03 00:41:31 | 41.49830 | 9.21896 | 243° | 24km/h | 24371m | 5.1m/s | 0°C | 0% | 0hPa | 0V | 00:00:00 | 00:00:00 | 00:00:00 | |
| RDZBGO | 2026-09-03 00:41:14 | 41.49810 | 9.21963 | 324° | 24km/h | 24288m | 2.6m/s | 0°C | 0% | 0hPa | 0V | 00:00:00 | 00:00:00 | 00:00:00 | |
| RDZ2B | 2026-09-03 00:41:11 | 41.49803 | 9.21960 | 112° | 11km/h | 24272m | 3.0m/s | 0°C | 0% | 0hPa | 0V | 00:00:00 | 00:00:00 | 00:00:00 | |
| RDZBGO | 2026-09-03 00:40:53 | 41.49763 | 9.22036 | 317° | 37km/h | 24187m | 6.6m/s | 0°C | 0% | 0hPa | 0V | 00:00:00 | 00:00:00 | 00:00:00 | |
| RDZBGO | 2026-09-03 00:40:33 | 41.49696 | 9.22139 | 274° | 18km/h | 24093m | 6.2m/s | 0°C | 0% | 0hPa | 0V | 00:00:00 | 00:00:00 | 00:00:00 | |
| RDZ2B | 2026-09-03 00:40:27 | 41.49685 | 9.22176 | 120° | 11km/h | 24062m | 3.5m/s | 0°C | 0% | 0hPa | 0V | 00:00:00 | 00:00:00 | 00:00:00 | |
| RDZBGO | 2026-09-03 00:40:14 | 41.49671 | 9.22236 | 74° | 13km/h | 23997m | 1.2m/s | 0°C | 0% | 0hPa | 0V | 00:00:00 | 00:00:00 | 00:00:00 | |
| RDZ2B | 2026-09-03 00:40:06 | 41.49672 | 9.22271 | 66° | 24km/h | 23962m | 5.3m/s | 0°C | 0% | 0hPa | 0V | 00:00:00 | 00:00:00 | 00:00:00 | |
| RDZBGO | 2026-09-03 00:39:53 | 41.49668 | 9.22314 | 300° | 20km/h | 23901m | 5.1m/s | 0°C | 0% | 0hPa | 0V | 00:00:00 | 00:00:00 | 00:00:00 | |
| RDZ2B | 2026-09-03 00:39:46 | 41.49666 | 9.22341 | 284° | 13km/h | 23867m | 5.6m/s | 0°C | 0% | 0hPa | 0V | 00:00:00 | 00:00:00 | 00:00:00 | |
| RDZBGO | 2026-09-03 00:39:33 | 41.49650 | 9.22387 | 243° | 40km/h | 23804m | 5.6m/s | 0°C | 0% | 0hPa | 0V | 00:00:00 | 00:00:00 | 00:00:00 | |
| RDZ2B | 2026-09-03 00:39:23 | 41.49652 | 9.22444 | 41° | 15km/h | 23750m | 5.2m/s | 0°C | 0% | 0hPa | 0V | 00:00:00 | 00:00:00 | 00:00:00 | |
| RDZBGO | 2026-09-03 00:39:12 | 41.49638 | 9.22476 | 271° | 18km/h | 23702m | 6.7m/s | 0°C | 0% | 0hPa | 0V | 00:00:00 | 00:00:00 | 00:00:00 | |
| RDZ2B | 2026-09-03 00:39:00 | 41.49620 | 9.22507 | 54° | 24km/h | 23642m | 5.8m/s | 0°C | 0% | 0hPa | 0V | 00:00:00 | 00:00:00 | 00:00:00 | |
| RDZBGO | 2026-09-03 00:38:51 | 41.49594 | 9.22519 | 10° | 18km/h | 23598m | 3.9m/s | 0°C | 0% | 0hPa | 0V | 00:00:00 | 00:00:00 | 00:00:00 | |
| RDZ2B | 2026-09-03 00:38:38 | 41.49581 | 9.22553 | 78° | 15km/h | 23534m | 3.3m/s | 0°C | 0% | 0hPa | 0V | 00:00:00 | 00:00:00 | 00:00:00 | |
| RDZBGO | 2026-09-03 00:38:31 | 41.49577 | 9.22577 | 129° | 13km/h | 23499m | 3.5m/s | 0°C | 0% | 0hPa | 0V | 00:00:00 | 00:00:00 | 00:00:00 | |
| RDZ2B | 2026-09-03 00:38:15 | 41.49578 | 9.22637 | 297° | 5km/h | 23418m | 5.7m/s | 0°C | 0% | 0hPa | 0V | 00:00:00 | 00:00:00 | 00:00:00 | |
| RDZBGO | 2026-09-03 00:38:10 | 41.49579 | 9.22657 | 188° | 9km/h | 23393m | 5.0m/s | 0°C | 0% | 0hPa | 0V | 00:00:00 | 00:00:00 | 00:00:00 | |
| RDZ2B | 2026-09-03 00:37:53 | 41.49579 | 9.22668 | 314° | 20km/h | 23308m | 5.7m/s | 0°C | 0% | 0hPa | 0V | 00:00:00 | 00:00:00 | 00:00:00 | |
| RDZBGO | 2026-09-03 00:37:49 | 41.49576 | 9.22678 | 110° | 7km/h | 23287m | 4.5m/s | 0°C | 0% | 0hPa | 0V | 00:00:00 | 00:00:00 | 00:00:00 | |
| RDZ2B | 2026-09-03 00:37:33 | 41.49551 | 9.22689 | 303° | 37km/h | 23206m | 3.8m/s | 0°C | 0% | 0hPa | 0V | 00:00:00 | 00:00:00 | 00:00:00 | |
| RDZBGO | 2026-09-03 00:37:28 | 41.49544 | 9.22680 | 101° | 18km/h | 23183m | 2.0m/s | 0°C | 0% | 0hPa | 0V | 00:00:00 | 00:00:00 | 00:00:00 | |
| RDZ2B | 2026-09-03 00:37:11 | 41.49493 | 9.22700 | 325° | 18km/h | 23098m | 4.6m/s | 0°C | 0% | 0hPa | 0V | 00:00:00 | 00:00:00 | 00:00:00 | |
| RDZBGO | 2026-09-03 00:37:08 | 41.49485 | 9.22701 | 59° | 13km/h | 23083m | 4.7m/s | 0°C | 0% | 0hPa | 0V | 00:00:00 | 00:00:00 | 00:00:00 | |
| RDZ2B | 2026-09-03 00:36:49 | 41.49424 | 9.22738 | 329° | 16km/h | 22990m | 6.0m/s | 0°C | 0% | 0hPa | 0V | 00:00:00 | 00:00:00 | 00:00:00 | |
| RDZBGO | 2026-09-03 00:36:47 | 41.49418 | 9.22739 | 6° | 13km/h | 22980m | 3.2m/s | 0°C | 0% | 0hPa | 0V | 00:00:00 | 00:00:00 | 00:00:00 | |
| RDZ2B | 2026-09-03 00:36:29 | 41.49364 | 9.22784 | 345° | 20km/h | 22895m | 5.2m/s | 0°C | 0% | 0hPa | 0V | 00:00:00 | 00:00:00 | 00:00:00 | |
| RDZBGO | 2026-09-03 00:36:26 | 41.49354 | 9.22786 | 309° | 15km/h | 22883m | 4.5m/s | 0°C | 0% | 0hPa | 0V | 00:00:00 | 00:00:00 | 00:00:00 | |
| RDZ2B | 2026-09-03 00:36:09 | 41.49305 | 9.22902 | 239° | 18km/h | 22794m | 6.6m/s | 0°C | 0% | 0hPa | 0V | 00:00:00 | 00:00:00 | 00:00:00 | |
| RDZBGO | 2026-09-03 00:36:06 | 41.49307 | 9.22908 | 304° | 11km/h | 22786m | 3.5m/s | 0°C | 0% | 0hPa | 0V | 00:00:00 | 00:00:00 | 00:00:00 | |
| RDZBGO | 2026-09-03 00:35:45 | 41.49256 | 9.23060 | 273° | 16km/h | 22685m | 3.9m/s | 0°C | 0% | 0hPa | 0V | 00:00:00 | 00:00:00 | 00:00:00 | |
| RDZ2B | 2026-09-03 00:35:43 | 41.49253 | 9.23074 | 291° | 29km/h | 22675m | 4.5m/s | 0°C | 0% | 0hPa | 0V | 00:00:00 | 00:00:00 | 00:00:00 | |
| RDZBGO | 2026-09-03 00:35:24 | 41.49273 | 9.23220 | 250° | 22km/h | 22587m | 4.2m/s | 0°C | 0% | 0hPa | 0V | 00:00:00 | 00:00:00 | 00:00:00 | |
| RDZ2B | 2026-09-03 00:35:16 | 41.49288 | 9.23290 | 268° | 26km/h | 22547m | 5.4m/s | 0°C | 0% | 0hPa | 0V | 00:00:00 | 00:00:00 | 00:00:00 | |
| RDZBGO | 2026-09-03 00:35:04 | 41.49320 | 9.23398 | 268° | 26km/h | 22488m | 1.2m/s | 0°C | 0% | 0hPa | 0V | 00:00:00 | 00:00:00 | 00:00:00 | |
| RDZ2B | 2026-09-03 00:34:42 | 41.49412 | 9.23520 | 242° | 24km/h | 22391m | 3.0m/s | 0°C | 0% | 0hPa | 0V | 00:00:00 | 00:00:00 | 00:00:00 | |
| RDZ2B | 2026-09-03 00:34:20 | 41.49537 | 9.23653 | 230° | 20km/h | 22289m | 5.4m/s | 0°C | 0% | 0hPa | 0V | 00:00:00 | 00:00:00 | 00:00:00 | |
| RDZBGO | 2026-09-03 00:34:02 | 41.49650 | 9.23732 | 215° | 26km/h | 22206m | 6.7m/s | 0°C | 0% | 0hPa | 0V | 00:00:00 | 00:00:00 | 00:00:00 | |
| RDZ2B | 2026-09-03 00:34:00 | 41.49654 | 9.23742 | 258° | 15km/h | 22196m | 3.6m/s | 0°C | 0% | 0hPa | 0V | 00:00:00 | 00:00:00 | 00:00:00 | |
| RDZBGO | 2026-09-03 00:33:41 | 41.49787 | 9.23810 | 205° | 16km/h | 22107m | 4.8m/s | 0°C | 0% | 0hPa | 0V | 00:00:00 | 00:00:00 | 00:00:00 | |
| RDZ2B | 2026-09-03 00:33:39 | 41.49797 | 9.23817 | 205° | 31km/h | 22097m | 5.5m/s | 0°C | 0% | 0hPa | 0V | 00:00:00 | 00:00:00 | 00:00:00 | |
| RDZBGO | 2026-09-03 00:33:20 | 41.49918 | 9.23854 | 170° | 22km/h | 22011m | 4.8m/s | 0°C | 0% | 0hPa | 0V | 00:00:00 | 00:00:00 | 00:00:00 | |
| RDZ2B | 2026-09-03 00:33:18 | 41.49935 | 9.23853 | 184° | 42km/h | 22000m | 3.5m/s | 0°C | 0% | 0hPa | 0V | 00:00:00 | 00:00:00 | 00:00:00 | |
| RDZBGO | 2026-09-03 00:32:59 | 41.50047 | 9.23842 | 210° | 29km/h | 21914m | 1.5m/s | 0°C | 0% | 0hPa | 0V | 00:00:00 | 00:00:00 | 00:00:00 | |
| RDZ2B | 2026-09-03 00:32:57 | 41.50052 | 9.23838 | 81° | 27km/h | 21899m | 3.7m/s | 0°C | 0% | 0hPa | 0V | 00:00:00 | 00:00:00 | 00:00:00 | |
| RDZBGO | 2026-09-03 00:32:38 | 41.50108 | 9.23769 | 141° | 20km/h | 21817m | 4.4m/s | 0°C | 0% | 0hPa | 0V | 00:00:00 | 00:00:00 | 00:00:00 | |
| RDZ2B | 2026-09-03 00:32:35 | 41.50119 | 9.23749 | 105° | 26km/h | 21802m | 4.7m/s | 0°C | 0% | 0hPa | 0V | 00:00:00 | 00:00:00 | 00:00:00 | |
| RDZBGO | 2026-09-03 00:32:17 | 41.50147 | 9.23640 | 184° | 13km/h | 21722m | 2.0m/s | 0°C | 0% | 0hPa | 0V | 00:00:00 | 00:00:00 | 00:00:00 | |
| RDZ2B | 2026-09-03 00:32:12 | 41.50143 | 9.23600 | 103° | 22km/h | 21701m | 6.4m/s | 0°C | 0% | 0hPa | 0V | 00:00:00 | 00:00:00 | 00:00:00 | |
| RDZBGO | 2026-09-03 00:31:56 | 41.50152 | 9.23523 | 95° | 18km/h | 21623m | 5.2m/s | 0°C | 0% | 0hPa | 0V | 00:00:00 | 00:00:00 | 00:00:00 | |
| RDZ2B | 2026-09-03 00:31:50 | 41.50151 | 9.23514 | 130° | 16km/h | 21596m | 5.2m/s | 0°C | 0% | 0hPa | 0V | 00:00:00 | 00:00:00 | 00:00:00 | |
| RDZBGO | 2026-09-03 00:31:36 | 41.50165 | 9.23487 | 223° | 13km/h | 21530m | 4.2m/s | 0°C | 0% | 0hPa | 0V | 00:00:00 | 00:00:00 | 00:00:00 | |
| RDZBGO | 2026-09-03 00:31:15 | 41.50214 | 9.23505 | 203° | 16km/h | 21432m | 5.5m/s | 0°C | 0% | 0hPa | 0V | 00:00:00 | 00:00:00 | 00:00:00 | |
| RDZBGO | 2026-09-03 00:30:55 | 41.50266 | 9.23516 | 154° | 15km/h | 21333m | 6.1m/s | 0°C | 0% | 0hPa | 0V | 00:00:00 | 00:00:00 | 00:00:00 | |
| RDZBGO | 2026-09-03 00:30:34 | 41.50323 | 9.23466 | 126° | 20km/h | 21234m | 6.1m/s | 0°C | 0% | 0hPa | 0V | 00:00:00 | 00:00:00 | 00:00:00 | |
| RDZBGO | 2026-09-03 00:30:13 | 41.50398 | 9.23417 | 148° | 33km/h | 21133m | 4.0m/s | 0°C | 0% | 0hPa | 0V | 00:00:00 | 00:00:00 | 00:00:00 | |
| RDZBGO | 2026-09-03 00:29:52 | 41.50513 | 9.23344 | 134° | 29km/h | 21034m | 3.8m/s | 0°C | 0% | 0hPa | 0V | 00:00:00 | 00:00:00 | 00:00:00 | |
| RDZBGO | 2026-09-03 00:29:31 | 41.50628 | 9.23222 | 163° | 22km/h | 20934m | 4.7m/s | 0°C | 0% | 0hPa | 0V | 00:00:00 | 00:00:00 | 00:00:00 | |
| RDZBGO | 2026-09-03 00:29:11 | 41.50729 | 9.23118 | 209° | 13km/h | 20842m | 6.1m/s | 0°C | 0% | 0hPa | 0V | 00:00:00 | 00:00:00 | 00:00:00 | |
| RDZBGO | 2026-09-03 00:28:50 | 41.50854 | 9.23065 | 200° | 27km/h | 20743m | 3.5m/s | 0°C | 0% | 0hPa | 0V | 00:00:00 | 00:00:00 | 00:00:00 | |
| RDZ2B | 2026-09-03 00:28:49 | 41.50867 | 9.23065 | 159° | 29km/h | 20736m | 5.9m/s | 0°C | 0% | 0hPa | 0V | 00:00:00 | 00:00:00 | 00:00:00 | |
| RDZBGO | 2026-09-03 00:28:29 | 41.50965 | 9.22992 | 155° | 7km/h | 20647m | 4.5m/s | 0°C | 0% | 0hPa | 0V | 00:00:00 | 00:00:00 | 00:00:00 | |
| RDZ2B | 2026-09-03 00:28:17 | 41.51013 | 9.22949 | 185° | 22km/h | 20592m | 5.7m/s | 0°C | 0% | 0hPa | 0V | 00:00:00 | 00:00:00 | 00:00:00 | |
| RDZBGO | 2026-09-03 00:28:08 | 41.51034 | 9.22921 | 160° | 18km/h | 20551m | 4.7m/s | 0°C | 0% | 0hPa | 0V | 00:00:00 | 00:00:00 | 00:00:00 | |
| RDZ2B | 2026-09-03 00:27:54 | 41.51046 | 9.22870 | 168° | 24km/h | 20489m | 5.9m/s | 0°C | 0% | 0hPa | 0V | 00:00:00 | 00:00:00 | 00:00:00 | |
| RDZBGO | 2026-09-03 00:27:47 | 41.51053 | 9.22859 | 172° | 20km/h | 20459m | 5.9m/s | 0°C | 0% | 0hPa | 0V | 00:00:00 | 00:00:00 | 00:00:00 | |
| RDZ2B | 2026-09-03 00:27:32 | 41.51095 | 9.22825 | 131° | 15km/h | 20392m | 4.9m/s | 0°C | 0% | 0hPa | 0V | 00:00:00 | 00:00:00 | 00:00:00 | |
| RDZBGO | 2026-09-03 00:27:27 | 41.51108 | 9.22811 | 152° | 24km/h | 20369m | 2.8m/s | 0°C | 0% | 0hPa | 0V | 00:00:00 | 00:00:00 | 00:00:00 | |
| RDZ2B | 2026-09-03 00:27:10 | 41.51141 | 9.22729 | 117° | 16km/h | 20295m | 3.7m/s | 0°C | 0% | 0hPa | 0V | 00:00:00 | 00:00:00 | 00:00:00 | |
| RDZBGO | 2026-09-03 00:27:06 | 41.51154 | 9.22707 | 105° | 15km/h | 20277m | 4.7m/s | 0°C | 0% | 0hPa | 0V | 00:00:00 | 00:00:00 | 00:00:00 | |
| RDZBGO | 2026-09-03 00:26:46 | 41.51186 | 9.22665 | 172° | 11km/h | 20184m | 5.1m/s | 0°C | 0% | 0hPa | 0V | 00:00:00 | 00:00:00 | 00:00:00 | |
| RDZ2B | 2026-09-03 00:26:45 | 41.51186 | 9.22665 | 172° | 11km/h | 20184m | 5.1m/s | 0°C | 0% | 0hPa | 0V | 00:00:00 | 00:00:00 | 00:00:00 | |
| RDZBGO | 2026-09-03 00:26:24 | 41.51287 | 9.22567 | 146° | 31km/h | 20087m | 5.3m/s | 0°C | 0% | 0hPa | 0V | 00:00:00 | 00:00:00 | 00:00:00 | |
| RDZBGO | 2026-09-03 00:26:04 | 41.51417 | 9.22425 | 138° | 47km/h | 19998m | 4.3m/s | 0°C | 0% | 0hPa | 0V | 00:00:00 | 00:00:00 | 00:00:00 | |
| RDZ2B | 2026-09-03 00:26:00 | 41.51439 | 9.22391 | 122° | 22km/h | 19981m | 3.2m/s | 0°C | 0% | 0hPa | 0V | 00:00:00 | 00:00:00 | 00:00:00 | |
| RDZBGO | 2026-09-03 00:25:44 | 41.51514 | 9.22264 | 96° | 38km/h | 19912m | 4.8m/s | 0°C | 0% | 0hPa | 0V | 00:00:00 | 00:00:00 | 00:00:00 | |
| RDZ2B | 2026-09-03 00:25:39 | 41.51533 | 9.22222 | 150° | 20km/h | 19891m | 3.5m/s | 0°C | 0% | 0hPa | 0V | 00:00:00 | 00:00:00 | 00:00:00 | |
| RDZBGO | 2026-09-03 00:25:23 | 41.51588 | 9.22082 | 73° | 27km/h | 19820m | 4.8m/s | 0°C | 0% | 0hPa | 0V | 00:00:00 | 00:00:00 | 00:00:00 | |
| RDZ2B | 2026-09-03 00:25:14 | 41.51596 | 9.22014 | 127° | 11km/h | 19782m | 6.6m/s | 0°C | 0% | 0hPa | 0V | 00:00:00 | 00:00:00 | 00:00:00 | |
| RDZBGO | 2026-09-03 00:25:02 | 41.51606 | 9.21961 | 88° | 29km/h | 19729m | 4.2m/s | 0°C | 0% | 0hPa | 0V | 00:00:00 | 00:00:00 | 00:00:00 | |
| RDZ2B | 2026-09-03 00:24:54 | 41.51591 | 9.21926 | 76° | 9km/h | 19696m | 4.3m/s | 0°C | 0% | 0hPa | 0V | 00:00:00 | 00:00:00 | 00:00:00 | |
| RDZBGO | 2026-09-03 00:24:42 | 41.51589 | 9.21905 | 76° | 22km/h | 19645m | 5.6m/s | 0°C | 0% | 0hPa | 0V | 00:00:00 | 00:00:00 | 00:00:00 | |
| RDZ2B | 2026-09-03 00:24:29 | 41.51585 | 9.21862 | 110° | 16km/h | 19586m | 5.8m/s | 0°C | 0% | 0hPa | 0V | 00:00:00 | 00:00:00 | 00:00:00 | |
| RDZBGO | 2026-09-03 00:24:21 | 41.51599 | 9.21828 | 128° | 22km/h | 19549m | 4.3m/s | 0°C | 0% | 0hPa | 0V | 00:00:00 | 00:00:00 | 00:00:00 | |
| RDZ2B | 2026-09-03 00:24:09 | 41.51639 | 9.21778 | 123° | 31km/h | 19496m | 3.2m/s | 0°C | 0% | 0hPa | 0V | 00:00:00 | 00:00:00 | 00:00:00 | |
| RDZBGO | 2026-09-03 00:24:00 | 41.51685 | 9.21732 | 155° | 16km/h | 19457m | 4.5m/s | 0°C | 0% | 0hPa | 0V | 00:00:00 | 00:00:00 | 00:00:00 | |
| RDZ2B | 2026-09-03 00:23:46 | 41.51774 | 9.21654 | 150° | 27km/h | 19399m | 3.9m/s | 0°C | 0% | 0hPa | 0V | 00:00:00 | 00:00:00 | 00:00:00 | |
| RDZBGO | 2026-09-03 00:23:39 | 41.51812 | 9.21597 | 142° | 37km/h | 19368m | 4.7m/s | 0°C | 0% | 0hPa | 0V | 00:00:00 | 00:00:00 | 00:00:00 | |
| RDZ2B | 2026-09-03 00:23:25 | 41.51878 | 9.21459 | 119° | 44km/h | 19310m | 3.1m/s | 0°C | 0% | 0hPa | 0V | 00:00:00 | 00:00:00 | 00:00:00 | |
| RDZBGO | 2026-09-03 00:23:18 | 41.51910 | 9.21387 | 117° | 38km/h | 19280m | 5.1m/s | 0°C | 0% | 0hPa | 0V | 00:00:00 | 00:00:00 | 00:00:00 | |
| RDZ2B | 2026-09-03 00:22:59 | 41.51983 | 9.21164 | 117° | 33km/h | 19198m | 5.9m/s | 0°C | 0% | 0hPa | 0V | 00:00:00 | 00:00:00 | 00:00:00 | |
| RDZBGO | 2026-09-03 00:22:57 | 41.51992 | 9.21146 | 121° | 33km/h | 19190m | 3.4m/s | 0°C | 0% | 0hPa | 0V | 00:00:00 | 00:00:00 | 00:00:00 | |
| RDZBGO | 2026-09-03 00:22:37 | 41.52023 | 9.20922 | 141° | 4km/h | 19106m | 2.7m/s | 0°C | 0% | 0hPa | 0V | 00:00:00 | 00:00:00 | 00:00:00 | |
| RDZ2B | 2026-09-03 00:22:36 | 41.52024 | 9.20919 | 117° | 18km/h | 19103m | 3.3m/s | 0°C | 0% | 0hPa | 0V | 00:00:00 | 00:00:00 | 00:00:00 | |
| RDZBGO | 2026-09-03 00:22:16 | 41.52018 | 9.20723 | 86° | 16km/h | 19007m | 2.6m/s | 0°C | 0% | 0hPa | 0V | 00:00:00 | 00:00:00 | 00:00:00 | |
| RDZ2B | 2026-09-03 00:22:08 | 41.52008 | 9.20656 | 71° | 35km/h | 18974m | 4.8m/s | 0°C | 0% | 0hPa | 0V | 00:00:00 | 00:00:00 | 00:00:00 | |
| RDZBGO | 2026-09-03 00:21:55 | 41.51962 | 9.20558 | 40° | 35km/h | 18921m | 3.2m/s | 0°C | 0% | 0hPa | 0V | 00:00:00 | 00:00:00 | 00:00:00 | |
| RDZ2B | 2026-09-03 00:21:37 | 41.51917 | 9.20506 | 66° | 9km/h | 18845m | 6.7m/s | 0°C | 0% | 0hPa | 0V | 00:00:00 | 00:00:00 | 00:00:00 | |
| RDZBGO | 2026-09-03 00:21:34 | 41.51904 | 9.20490 | 22° | 20km/h | 18831m | 3.8m/s | 0°C | 0% | 0hPa | 0V | 00:00:00 | 00:00:00 | 00:00:00 | |
| RDZ2B | 2026-09-03 00:21:13 | 41.51854 | 9.20493 | 48° | 29km/h | 18733m | 6.3m/s | 0°C | 0% | 0hPa | 0V | 00:00:00 | 00:00:00 | 00:00:00 | |
| RDZBGO | 2026-09-03 00:20:53 | 41.51867 | 9.20463 | 200° | 31km/h | 18599m | 6.4m/s | 0°C | 0% | 0hPa | 0V | 00:00:00 | 00:00:00 | 00:00:00 | |
| RDZBGO | 2026-09-03 00:20:32 | 41.51841 | 9.20322 | 129° | 37km/h | 18426m | 9.9m/s | 0°C | 0% | 0hPa | 0V | 00:00:00 | 00:00:00 | 00:00:00 | |
| RDZ2B | 2026-09-03 00:20:24 | 41.51890 | 9.20247 | 130° | 47km/h | 18370m | 6.5m/s | 0°C | 0% | 0hPa | 0V | 00:00:00 | 00:00:00 | 00:00:00 | |
| RDZBGO | 2026-09-03 00:20:11 | 41.51967 | 9.20080 | 127° | 57km/h | 18287m | 4.8m/s | 0°C | 0% | 0hPa | 0V | 00:00:00 | 00:00:00 | 00:00:00 | |
| RDZ2B | 2026-09-03 00:20:02 | 41.52009 | 9.19949 | 112° | 38km/h | 18236m | 4.6m/s | 0°C | 0% | 0hPa | 0V | 00:00:00 | 00:00:00 | 00:00:00 | |
| RDZBGO | 2026-09-03 00:19:51 | 41.52066 | 9.19799 | 125° | 46km/h | 18181m | 5.2m/s | 0°C | 0% | 0hPa | 0V | 00:00:00 | 00:00:00 | 00:00:00 | |
| RDZBGO | 2026-09-03 00:19:30 | 41.52171 | 9.19540 | 110° | 33km/h | 18087m | 3.1m/s | 0°C | 0% | 0hPa | 0V | 00:00:00 | 00:00:00 | 00:00:00 | |
| RDZBGO | 2026-09-03 00:19:10 | 41.52299 | 9.19261 | 121° | 55km/h | 18002m | 5.1m/s | 0°C | 0% | 0hPa | 0V | 00:00:00 | 00:00:00 | 00:00:00 | |
| RDZBGO | 2026-09-03 00:18:49 | 41.52416 | 9.18887 | 100° | 62km/h | 17919m | 5.1m/s | 0°C | 0% | 0hPa | 0V | 00:00:00 | 00:00:00 | 00:00:00 | |
| RDZBGO | 2026-09-03 00:18:29 | 41.52480 | 9.18514 | 92° | 57km/h | 17839m | 2.8m/s | 0°C | 0% | 0hPa | 0V | 00:00:00 | 00:00:00 | 00:00:00 | |
| RDZ2B | 2026-09-03 00:18:10 | 41.52510 | 9.18177 | 82° | 47km/h | 17762m | 4.3m/s | 0°C | 0% | 0hPa | 0V | 00:00:00 | 00:00:00 | 00:00:00 | |
| RDZBGO | 2026-09-03 00:18:08 | 41.52509 | 9.18147 | 99° | 46km/h | 17754m | 3.6m/s | 0°C | 0% | 0hPa | 0V | 00:00:00 | 00:00:00 | 00:00:00 | |
| RDZ2B | 2026-09-03 00:17:49 | 41.52551 | 9.17842 | 109° | 57km/h | 17677m | 3.9m/s | 0°C | 0% | 0hPa | 0V | 00:00:00 | 00:00:00 | 00:00:00 | |
| RDZBGO | 2026-09-03 00:17:27 | 41.52607 | 9.17477 | 108° | 57km/h | 17588m | 4.8m/s | 0°C | 0% | 0hPa | 0V | 00:00:00 | 00:00:00 | 00:00:00 | |
| RDZ2B | 2026-09-03 00:17:26 | 41.52612 | 9.17460 | 119° | 51km/h | 17583m | 4.6m/s | 0°C | 0% | 0hPa | 0V | 00:00:00 | 00:00:00 | 00:00:00 | |
| RDZBGO | 2026-09-03 00:17:06 | 41.52662 | 9.17178 | 109° | 40km/h | 17502m | 5.5m/s | 0°C | 0% | 0hPa | 0V | 00:00:00 | 00:00:00 | 00:00:00 | |
| RDZ2B | 2026-09-03 00:17:00 | 41.52680 | 9.17097 | 113° | 42km/h | 17476m | 4.9m/s | 0°C | 0% | 0hPa | 0V | 00:00:00 | 00:00:00 | 00:00:00 | |
| RDZBGO | 2026-09-03 00:16:46 | 41.52723 | 9.16924 | 94° | 40km/h | 17418m | 3.0m/s | 0°C | 0% | 0hPa | 0V | 00:00:00 | 00:00:00 | 00:00:00 | |
| RDZ2B | 2026-09-03 00:16:31 | 41.52778 | 9.16739 | 120° | 51km/h | 17357m | 3.4m/s | 0°C | 0% | 0hPa | 0V | 00:00:00 | 00:00:00 | 00:00:00 | |
| RDZBGO | 2026-09-03 00:16:25 | 41.52799 | 9.16665 | 127° | 44km/h | 17332m | 3.6m/s | 0°C | 0% | 0hPa | 0V | 00:00:00 | 00:00:00 | 00:00:00 | |
| RDZ2B | 2026-09-03 00:16:09 | 41.52867 | 9.16459 | 122° | 42km/h | 17267m | 5.4m/s | 0°C | 0% | 0hPa | 0V | 00:00:00 | 00:00:00 | 00:00:00 | |
| RDZBGO | 2026-09-03 00:16:05 | 41.52883 | 9.16404 | 101° | 44km/h | 17250m | 2.8m/s | 0°C | 0% | 0hPa | 0V | 00:00:00 | 00:00:00 | 00:00:00 | |
| RDZ2B | 2026-09-03 00:15:45 | 41.52959 | 9.16121 | 116° | 47km/h | 17163m | 4.6m/s | 0°C | 0% | 0hPa | 0V | 00:00:00 | 00:00:00 | 00:00:00 | |
| RDZBGO | 2026-09-03 00:15:44 | 41.52964 | 9.16106 | 115° | 46km/h | 17159m | 2.9m/s | 0°C | 0% | 0hPa | 0V | 00:00:00 | 00:00:00 | 00:00:00 | |
| RDZBGO | 2026-09-03 00:15:24 | 41.52997 | 9.15813 | 115° | 35km/h | 17073m | 3.3m/s | 0°C | 0% | 0hPa | 0V | 00:00:00 | 00:00:00 | 00:00:00 | |
| RDZ2B | 2026-09-03 00:15:23 | 41.53000 | 9.15801 | 97° | 38km/h | 17069m | 4.6m/s | 0°C | 0% | 0hPa | 0V | 00:00:00 | 00:00:00 | 00:00:00 | |
| RDZBGO | 2026-09-03 00:15:03 | 41.52994 | 9.15530 | 75° | 38km/h | 16981m | 2.8m/s | 0°C | 0% | 0hPa | 0V | 00:00:00 | 00:00:00 | 00:00:00 | |
| RDZ2B | 2026-09-03 00:14:59 | 41.52998 | 9.15482 | 91° | 29km/h | 16966m | 4.2m/s | 0°C | 0% | 0hPa | 0V | 00:00:00 | 00:00:00 | 00:00:00 | |
| RDZBGO | 2026-09-03 00:14:42 | 41.52972 | 9.15304 | 104° | 27km/h | 16891m | 5.0m/s | 0°C | 0% | 0hPa | 0V | 00:00:00 | 00:00:00 | 00:00:00 | |
| RDZ2B | 2026-09-03 00:14:38 | 41.52964 | 9.15257 | 77° | 38km/h | 16870m | 5.2m/s | 0°C | 0% | 0hPa | 0V | 00:00:00 | 00:00:00 | 00:00:00 | |
| RDZBGO | 2026-09-03 00:14:22 | 41.52942 | 9.15117 | 102° | 31km/h | 16805m | 4.2m/s | 0°C | 0% | 0hPa | 0V | 00:00:00 | 00:00:00 | 00:00:00 | |
| RDZ2B | 2026-09-03 00:14:03 | 41.52904 | 9.14960 | 47° | 29km/h | 16720m | 4.7m/s | 0°C | 0% | 0hPa | 0V | 00:00:00 | 00:00:00 | 00:00:00 | |
| RDZBGO | 2026-09-03 00:14:01 | 41.52895 | 9.14949 | 49° | 18km/h | 16712m | 5.2m/s | 0°C | 0% | 0hPa | 0V | 00:00:00 | 00:00:00 | 00:00:00 | |
| RDZ2B | 2026-09-03 00:13:42 | 41.52853 | 9.14816 | 81° | 11km/h | 16628m | 5.3m/s | 0°C | 0% | 0hPa | 0V | 00:00:00 | 00:00:00 | 00:00:00 | |
| RDZBGO | 2026-09-03 00:13:40 | 41.52851 | 9.14804 | 68° | 26km/h | 16620m | 5.1m/s | 0°C | 0% | 0hPa | 0V | 00:00:00 | 00:00:00 | 00:00:00 | |
| RDZBGO | 2026-09-03 00:13:20 | 41.52802 | 9.14666 | 63° | 18km/h | 16532m | 5.1m/s | 0°C | 0% | 0hPa | 0V | 00:00:00 | 00:00:00 | 00:00:00 | |
| RDZ2B | 2026-09-03 00:13:07 | 41.52780 | 9.14599 | 52° | 33km/h | 16473m | 4.6m/s | 0°C | 0% | 0hPa | 0V | 00:00:00 | 00:00:00 | 00:00:00 | |
| RDZBGO | 2026-09-03 00:12:59 | 41.52764 | 9.14551 | 66° | 20km/h | 16437m | 3.9m/s | 0°C | 0% | 0hPa | 0V | 00:00:00 | 00:00:00 | 00:00:00 | |
| RDZ2B | 2026-09-03 00:12:41 | 41.52758 | 9.14442 | 100° | 31km/h | 16338m | 7.2m/s | 0°C | 0% | 0hPa | 0V | 00:00:00 | 00:00:00 | 00:00:00 | |
| RDZBGO | 2026-09-03 00:12:38 | 41.52766 | 9.14403 | 116° | 29km/h | 16324m | 5.2m/s | 0°C | 0% | 0hPa | 0V | 00:00:00 | 00:00:00 | 00:00:00 | |
| RDZ2B | 2026-09-03 00:12:18 | 41.52814 | 9.14251 | 138° | 37km/h | 16218m | 3.0m/s | 0°C | 0% | 0hPa | 0V | 00:00:00 | 00:00:00 | 00:00:00 | |
| RDZBGO | 2026-09-03 00:12:17 | 41.52819 | 9.14242 | 128° | 33km/h | 16214m | 6.0m/s | 0°C | 0% | 0hPa | 0V | 00:00:00 | 00:00:00 | 00:00:00 | |
| RDZ2B | 2026-09-03 00:11:57 | 41.52930 | 9.14030 | 128° | 40km/h | 16122m | 4.3m/s | 0°C | 0% | 0hPa | 0V | 00:00:00 | 00:00:00 | 00:00:00 | |
| RDZBGO | 2026-09-03 00:11:56 | 41.52936 | 9.14019 | 138° | 42km/h | 16117m | 5.1m/s | 0°C | 0% | 0hPa | 0V | 00:00:00 | 00:00:00 | 00:00:00 | |
| RDZ2B | 2026-09-03 00:11:36 | 41.53075 | 9.13766 | 129° | 66km/h | 16037m | 3.2m/s | 0°C | 0% | 0hPa | 0V | 00:00:00 | 00:00:00 | 00:00:00 | |
| RDZBGO | 2026-09-03 00:11:15 | 41.53220 | 9.13476 | 140° | 37km/h | 15957m | 4.2m/s | 0°C | 0% | 0hPa | 0V | 00:00:00 | 00:00:00 | 00:00:00 | |
| RDZ2B | 2026-09-03 00:11:14 | 41.53226 | 9.13467 | 130° | 33km/h | 15953m | 4.0m/s | 0°C | 0% | 0hPa | 0V | 00:00:00 | 00:00:00 | 00:00:00 | |
| RDZBGO | 2026-09-03 00:10:54 | 41.53394 | 9.13219 | 137° | 51km/h | 15879m | 3.3m/s | 0°C | 0% | 0hPa | 0V | 00:00:00 | 00:00:00 | 00:00:00 | |
| RDZ2B | 2026-09-03 00:10:53 | 41.53404 | 9.13206 | 141° | 58km/h | 15875m | 3.8m/s | 0°C | 0% | 0hPa | 0V | 00:00:00 | 00:00:00 | 00:00:00 | |
| RDZBGO | 2026-09-03 00:10:34 | 41.53618 | 9.12927 | 139° | 66km/h | 15810m | 3.1m/s | 0°C | 0% | 0hPa | 0V | 00:00:00 | 00:00:00 | 00:00:00 | |
| RDZ2B | 2026-09-03 00:10:23 | 41.53734 | 9.12752 | 138° | 58km/h | 15774m | 4.0m/s | 0°C | 0% | 0hPa | 0V | 00:00:00 | 00:00:00 | 00:00:00 | |
| RDZBGO | 2026-09-03 00:10:13 | 41.53839 | 9.12583 | 127° | 69km/h | 15742m | 2.9m/s | 0°C | 0% | 0hPa | 0V | 00:00:00 | 00:00:00 | 00:00:00 | |
| RDZBGO | 2026-09-03 00:09:52 | 41.54062 | 9.12230 | 126° | 66km/h | 15668m | 4.1m/s | 0°C | 0% | 0hPa | 0V | 00:00:00 | 00:00:00 | 00:00:00 | |
| RDZBGO | 2026-09-03 00:09:31 | 41.54257 | 9.11877 | 122° | 60km/h | 15593m | 3.4m/s | 0°C | 0% | 0hPa | 0V | 00:00:00 | 00:00:00 | 00:00:00 | |
| RDZ2B | 2026-09-03 00:09:16 | 41.54382 | 9.11655 | 124° | 42km/h | 15539m | 2.8m/s | !°C | 0% | 0hPa | 0V | 00:00:00 | 00:00:00 | 00:00:00 | |
| RDZBGO | 2026-09-03 00:09:11 | 41.54420 | 9.11573 | 130° | 46km/h | 15521m | 4.9m/s | 0°C | 0% | 0hPa | 0V | 00:00:00 | 00:00:00 | 00:00:00 | |
| RDZBGO | 2026-09-03 00:08:51 | 41.54594 | 9.11340 | 134° | 46km/h | 15443m | 4.0m/s | 0°C | 0% | 0hPa | 0V | 00:00:00 | 00:00:00 | 00:00:00 | |
| RDZ2B | 2026-09-03 00:08:39 | 41.54712 | 9.11178 | 129° | 68km/h | 15394m | 5.5m/s | 0°C | 0% | 0hPa | 0V | 00:00:00 | 00:00:00 | 00:00:00 | |
| RDZBGO | 2026-09-03 00:08:30 | 41.54796 | 9.11035 | 132° | 69km/h | 15358m | 4.3m/s | 0°C | 0% | 0hPa | 0V | 00:00:00 | 00:00:00 | 00:00:00 | |
| RDZBGO | 2026-09-03 00:08:10 | 41.55008 | 9.10740 | 128° | 62km/h | 15271m | 3.2m/s | 0°C | 0% | 0hPa | 0V | 00:00:00 | 00:00:00 | 00:00:00 | |
| RDZ2B | 2026-09-03 00:07:57 | 41.55150 | 9.10590 | 139° | 53km/h | 15213m | 4.9m/s | 0°C | 0% | 0hPa | 0V | 00:00:00 | 00:00:00 | 00:00:00 | |
| RDZBGO | 2026-09-03 00:07:50 | 41.55242 | 9.10495 | 139° | 62km/h | 15179m | 5.5m/s | 0°C | 0% | 0hPa | 0V | 00:00:00 | 00:00:00 | 00:00:00 | |
| RDZBGO | 2026-09-03 00:07:29 | 41.55452 | 9.10249 | 138° | 55km/h | 15090m | 5.2m/s | 0°C | 0% | 0hPa | 0V | 00:00:00 | 00:00:00 | 00:00:00 | |
| RDZ2B | 2026-09-03 00:07:25 | 41.55498 | 9.10204 | 137° | 58km/h | 15071m | 3.3m/s | 0°C | 0% | 0hPa | 0V | 00:00:00 | 00:00:00 | 00:00:00 | |
| RDZBGO | 2026-09-03 00:07:08 | 41.55663 | 9.10009 | 133° | 51km/h | 14999m | 3.0m/s | 0°C | 0% | 0hPa | 0V | 00:00:00 | 00:00:00 | 00:00:00 | |
| IW2NTF | 2026-09-03 00:06:57 | 41.55801 | 9.09845 | 144° | 55km/h | 14943m | 3.9m/s | 0°C | 0% | 0hPa | 0V | 00:00:00 | 00:00:00 | 00:00:00 | |
| RDZ2B | 2026-09-03 00:06:54 | 41.55812 | 9.09833 | 139° | 53km/h | 14939m | 4.8m/s | 0°C | 0% | 0hPa | 0V | 00:00:00 | 00:00:00 | 00:00:00 | |
| IW2NTF | 2026-09-03 00:06:50 | 41.55910 | 9.09699 | 136° | 66km/h | 14901m | 5.1m/s | 0°C | 0% | 0hPa | 0V | 00:00:00 | 00:00:00 | 00:00:00 | |
| RDZBGO | 2026-09-03 00:06:48 | 41.55887 | 9.09731 | 134° | 66km/h | 14910m | 4.9m/s | 0°C | 0% | 0hPa | 0V | 00:00:00 | 00:00:00 | 00:00:00 | |
| IW2NTF | 2026-09-03 00:06:37 | 41.56060 | 9.09496 | 142° | 66km/h | 14849m | 3.8m/s | 0°C | 0% | 0hPa | 0V | 00:00:00 | 00:00:00 | 00:00:00 | |
| RDZBGO | 2026-09-03 00:06:26 | 41.56126 | 9.09411 | 142° | 66km/h | 14825m | 2.9m/s | 0°C | 0% | 0hPa | 0V | 00:00:00 | 00:00:00 | 00:00:00 | |
| RDZ2B | 2026-09-03 00:06:06 | 41.56327 | 9.09108 | 127° | 58km/h | 14747m | 3.4m/s | 0°C | 0% | 0hPa | 0V | 00:00:00 | 00:00:00 | 00:00:00 | |
| IW2NTF | 2026-09-03 00:06:02 | 41.56380 | 9.09013 | 123° | 58km/h | 14723m | 3.9m/s | 0°C | 0% | 0hPa | 0V | 00:00:00 | 00:00:00 | 00:00:00 | |
| IW2NTF | 2026-09-03 00:05:55 | 41.56458 | 9.08874 | 119° | 58km/h | 14690m | 4m/s | 0°C | 0% | 0hPa | 0V | 00:00:00 | 00:00:00 | 00:00:00 | |
| RDZ2B | 2026-09-03 00:05:45 | 41.56510 | 9.08778 | 111° | 64km/h | 14666m | 5.0m/s | 0°C | 0% | 0hPa | 0V | 00:00:00 | 00:00:00 | 00:00:00 | |
| IW2NTF | 2026-09-03 00:05:40 | 41.56583 | 9.08623 | 136° | 46km/h | 14620m | 5.2m/s | 0°C | 0% | 0hPa | 0V | 00:00:00 | 00:00:00 | 00:00:00 | |
| IW2NTF | 2026-09-03 00:05:31 | 41.56659 | 9.08496 | 122° | 44km/h | 14578m | 3.1m/s | 0°C | 0% | 0hPa | 0V | 00:00:00 | 00:00:00 | 00:00:00 | |
| RDZ2B | 2026-09-03 00:05:25 | 41.56658 | 9.08496 | 124° | 44km/h | 14578m | 3.1m/s | 0°C | 0% | 0hPa | 0V | 00:00:00 | 00:00:00 | 00:00:00 | |
| IW2NTF | 2026-09-03 00:05:14 | 41.56783 | 9.08298 | 125° | 46km/h | 14508m | 3.4m/s | 0°C | 0% | 0hPa | 0V | 00:00:00 | 00:00:00 | 00:00:00 | |
| RDZ2B | 2026-09-03 00:05:05 | 41.56801 | 9.08277 | 151° | 53km/h | 14500m | 4.3m/s | 0°C | 0% | 0hPa | 0V | 00:00:00 | 00:00:00 | 00:00:00 | |
| RDZBGO | 2026-09-03 00:05:04 | 41.56812 | 9.08268 | 149° | 47km/h | 14496m | 3.4m/s | 0°C | 0% | 0hPa | 0V | 00:00:00 | 00:00:00 | 00:00:00 | |
| IW2NTF | 2026-09-03 00:04:51 | 41.56931 | 9.08125 | 143° | 31km/h | 14440m | 3.8m/s | 0°C | 0% | 0hPa | 0V | 00:00:00 | 00:00:00 | 00:00:00 | |
| RDZBGO | 2026-09-03 00:04:44 | 41.56987 | 9.08075 | 134° | 42km/h | 14416m | 3.8m/s | 0°C | 0% | 0hPa | 0V | 00:00:00 | 00:00:00 | 00:00:00 | |
| RDZ2B | 2026-09-03 00:04:43 | 41.57002 | 9.08059 | 155° | 37km/h | 14409m | 5.1m/s | 0°C | 0% | 0hPa | 0V | 00:00:00 | 00:00:00 | 00:00:00 | |
| RDZBGO | 2026-09-03 00:04:23 | 41.57211 | 9.07882 | 136° | 53km/h | 14327m | 4.0m/s | 0°C | 0% | 0hPa | 0V | 00:00:00 | 00:00:00 | 00:00:00 | |
| RDZ2B | 2026-09-03 00:04:22 | 41.57221 | 9.07870 | 141° | 55km/h | 14323m | 4.5m/s | 0°C | 0% | 0hPa | 0V | 00:00:00 | 00:00:00 | 00:00:00 | |
| RDZ2B | 2026-09-03 00:04:01 | 41.57451 | 9.07613 | 130° | 53km/h | 14235m | 4.5m/s | 0°C | 0% | 0hPa | 0V | 00:00:00 | 00:00:00 | 00:00:00 | |
| RDZBGO | 2026-09-03 00:03:42 | 41.57638 | 9.07376 | 126° | 53km/h | 14154m | 4.5m/s | 0°C | 0% | 0hPa | 0V | 00:00:00 | 00:00:00 | 00:00:00 | |
| RDZ2B | 2026-09-03 00:03:40 | 41.57658 | 9.07351 | 151° | 58km/h | 14143m | 4.6m/s | 0°C | 0% | 0hPa | 0V | 00:00:00 | 00:00:00 | 00:00:00 | |
| RDZBGO | 2026-09-03 00:03:22 | 41.57869 | 9.07153 | 152° | 60km/h | 14063m | 3.1m/s | 0°C | 0% | 0hPa | 0V | 00:00:00 | 00:00:00 | 00:00:00 | |
| RDZ2B | 2026-09-03 00:03:00 | 41.58512 | 9.06545 | 149° | 71km/h | 13847m | 3.7m/s | 0°C | 0% | 0hPa | 0V | 00:00:00 | 00:00:00 | 00:00:00 | |
| RDZBGO | 2026-09-03 00:02:43 | 41.58658 | 9.06395 | 139° | 68km/h | 13801m | 5.7m/s | 0°C | 0% | 0hPa | 0V | 00:00:00 | 00:00:00 | 00:00:00 | |
| RDZ2B | 2026-09-03 00:02:31 | 41.58786 | 9.06249 | 146° | 71km/h | 13760m | 2.2m/s | 0°C | 0% | 0hPa | 0V | 00:00:00 | 00:00:00 | 00:00:00 | |
| RDZBGO | 2026-09-03 00:02:17 | 41.58916 | 9.06114 | 137° | 73km/h | 13719m | 4.2m/s | 0°C | 0% | 0hPa | 0V | 00:00:00 | 00:00:00 | 00:00:00 | |
| RDZ2B | 2026-09-03 00:01:56 | 41.59150 | 9.05852 | 132° | 78km/h | 13650m | 4.7m/s | 0°C | 0% | 0hPa | 0V | 00:00:00 | 00:00:00 | 00:00:00 | |
| RDZBGO | 2026-09-03 00:01:50 | 41.59199 | 9.05791 | 151° | 58km/h | 13634m | 4.0m/s | 0°C | 0% | 0hPa | 0V | 00:00:00 | 00:00:00 | 00:00:00 | |
| RDZ2B | 2026-09-03 00:01:34 | 41.59395 | 9.05533 | 142° | 57km/h | 13568m | 6.3m/s | 0°C | 0% | 0hPa | 0V | 00:00:00 | 00:00:00 | 00:00:00 | |
| RDZ2B | 2026-09-03 00:01:06 | 41.59623 | 9.05250 | 137° | 64km/h | 13487m | 3.8m/s | 0°C | 0% | 0hPa | 0V | 00:00:00 | 00:00:00 | 00:00:00 | |
| RDZBGO | 2026-09-03 00:00:57 | 41.59680 | 9.05187 | 137° | 64km/h | 13468m | 4.1m/s | 0°C | 0% | 0hPa | 0V | 00:00:00 | 00:00:00 | 00:00:00 | |
| RDZ2B | 2026-09-03 00:00:44 | 41.59891 | 9.04952 | 146° | 55km/h | 13397m | 3.9m/s | 0°C | 0% | 0hPa | 0V | 00:00:00 | 00:00:00 | 00:00:00 | |
| RDZBGO | 2026-09-03 00:00:42 | 41.59916 | 9.04929 | 142° | 64km/h | 13389m | 5.3m/s | 0°C | 0% | 0hPa | 0V | 00:00:00 | 00:00:00 | 00:00:00 | |
| RDZ2B | 2026-09-03 00:00:17 | 41.60173 | 9.04686 | 144° | 60km/h | 13311m | 3.2m/s | 0°C | 0% | 0hPa | 0V | 00:00:00 | 00:00:00 | 00:00:00 | |
| RDZBGO | 2026-09-03 00:00:15 | 41.60186 | 9.04675 | 148° | 64km/h | 13308m | 2.7m/s | 0°C | 0% | 0hPa | 0V | 00:00:00 | 00:00:00 | 00:00:00 | |
| RDZ2B | 2026-09-02 23:59:52 | 41.60509 | 9.04448 | 156° | 58km/h | 13222m | 2.7m/s | 0°C | 0% | 0hPa | 0V | 00:00:00 | 00:00:00 | 00:00:00 | |
| RDZBGO | 2026-09-02 23:59:49 | 41.60554 | 9.04417 | 155° | 71km/h | 13211m | 4.2m/s | 0°C | 0% | 0hPa | 0V | 00:00:00 | 00:00:00 | 00:00:00 | |
| RDZ2B | 2026-09-02 23:59:32 | 41.60815 | 9.04262 | 161° | 69km/h | 13145m | 4.5m/s | 0°C | 0% | 0hPa | 0V | 00:00:00 | 00:00:00 | 00:00:00 | |
| RDZBGO | 2026-09-02 23:59:24 | 41.60917 | 9.04197 | 160° | 77km/h | 13118m | 4.3m/s | 0°C | 0% | 0hPa | 0V | 00:00:00 | 00:00:00 | 00:00:00 | |
| RDZ2B | 2026-09-02 23:59:04 | 41.61235 | 9.04032 | 159° | 69km/h | 13040m | 3.0m/s | 0°C | 0% | 0hPa | 0V | 00:00:00 | 00:00:00 | 00:00:00 | |
| RDZBGO | 2026-09-02 23:59:01 | 41.61282 | 9.04008 | 163° | 58km/h | 13030m | 3.3m/s | 0°C | 0% | 0hPa | 0V | 00:00:00 | 00:00:00 | 00:00:00 | |
| RDZBGO | 2026-09-02 23:58:40 | 41.61618 | 9.03844 | 170° | 68km/h | 12949m | 3.8m/s | 0°C | 0% | 0hPa | 0V | 00:00:00 | 00:00:00 | 00:00:00 | |
| RDZ2B | 2026-09-02 23:58:39 | 41.61634 | 9.03839 | 167° | 68km/h | 12945m | 4.3m/s | 0°C | 0% | 0hPa | 0V | 00:00:00 | 00:00:00 | 00:00:00 | |
| RDZBGO | 2026-09-02 23:58:19 | 41.61967 | 9.03675 | 162° | 78km/h | 12868m | 4.9m/s | 0°C | 0% | 0hPa | 0V | 00:00:00 | 00:00:00 | 00:00:00 | |
| RDZ2B | 2026-09-02 23:58:18 | 41.61987 | 9.03667 | 165° | 82km/h | 12864m | 4.0m/s | 0°C | 0% | 0hPa | 0V | 00:00:00 | 00:00:00 | 00:00:00 | |
| RDZBGO | 2026-09-02 23:57:58 | 41.62318 | 9.03493 | 161° | 68km/h | 12783m | 4.8m/s | 0°C | 0% | 0hPa | 0V | 00:00:00 | 00:00:00 | 00:00:00 | |
| RDZ2B | 2026-09-02 23:57:56 | 41.62353 | 9.03477 | 162° | 77km/h | 12774m | 4.9m/s | 0°C | 0% | 0hPa | 0V | 00:00:00 | 00:00:00 | 00:00:00 | |
| RDZ2B | 2026-09-02 23:57:36 | 41.62675 | 9.03293 | 158° | 71km/h | 12692m | 4.4m/s | 0°C | 0% | 0hPa | 0V | 00:00:00 | 00:00:00 | 00:00:00 | |
| RDZBGO | 2026-09-02 23:57:31 | 41.62750 | 9.03242 | 161° | 68km/h | 12671m | 5.0m/s | 0°C | 0% | 0hPa | 0V | 00:00:00 | 00:00:00 | 00:00:00 | |
| RDZ2B | 2026-09-02 23:57:15 | 41.63017 | 9.03067 | 155° | 69km/h | 12605m | 5.2m/s | 0°C | 0% | 0hPa | 0V | 00:00:00 | 00:00:00 | 00:00:00 | |
| RDZBGO | 2026-09-02 23:57:10 | 41.63103 | 9.03011 | 150° | 75km/h | 12585m | 4.6m/s | 0°C | 0% | 0hPa | 0V | 00:00:00 | 00:00:00 | 00:00:00 | |
| RDZBGO | 2026-09-02 23:56:45 | 41.63493 | 9.02749 | 152° | 66km/h | 12484m | 3.2m/s | 0°C | 0% | 0hPa | 0V | 00:00:00 | 00:00:00 | 00:00:00 | |
| RDZBGO | 2026-09-02 23:56:18 | 41.63911 | 9.02511 | 158° | 80km/h | 12374m | 4.2m/s | 0°C | 0% | 0hPa | 0V | 00:00:00 | 00:00:00 | 00:00:00 | |
| RDZ2B | 2026-09-02 23:56:03 | 41.64129 | 9.02382 | 164° | 49km/h | 12314m | 3.2m/s | 0°C | 0% | 0hPa | 0V | 00:00:00 | 00:00:00 | 00:00:00 | |
| RDZBGO | 2026-09-02 23:55:53 | 41.64271 | 9.02307 | 160° | 60km/h | 12274m | 5.2m/s | 0°C | 0% | 0hPa | 0V | 00:00:00 | 00:00:00 | 00:00:00 | |
| RDZ2B | 2026-09-02 23:55:43 | 41.64415 | 9.02228 | 159° | 68km/h | 12231m | 5.1m/s | 0°C | 0% | 0hPa | 0V | 00:00:00 | 00:00:00 | 00:00:00 | |
| RDZBGO | 2026-09-02 23:55:32 | 41.64581 | 9.02132 | 158° | 69km/h | 12190m | 4.2m/s | 0°C | 0% | 0hPa | 0V | 00:00:00 | 00:00:00 | 00:00:00 | |
| RDZ2B | 2026-09-02 23:55:22 | 41.64726 | 9.02059 | 164° | 66km/h | 12152m | 4.3m/s | 0°C | 0% | 0hPa | 0V | 00:00:00 | 00:00:00 | 00:00:00 | |
| RDZBGO | 2026-09-02 23:55:10 | 41.64903 | 9.01968 | 158° | 58km/h | 12105m | 4.6m/s | 0°C | 0% | 0hPa | 0V | 00:00:00 | 00:00:00 | 00:00:00 | |
| RDZ2B | 2026-09-02 23:55:00 | 41.65044 | 9.01901 | 172° | 58km/h | 12065m | 4.7m/s | 0°C | 0% | 0hPa | 0V | 00:00:00 | 00:00:00 | 00:00:00 | |
| RDZBGO | 2026-09-02 23:54:49 | 41.65200 | 9.01832 | 162° | 49km/h | 12018m | 4.0m/s | 0°C | 0% | 0hPa | 0V | 00:00:00 | 00:00:00 | 00:00:00 | |
| RDZ2B | 2026-09-02 23:54:40 | 41.65328 | 9.01779 | 158° | 58km/h | 11983m | 4.0m/s | 0°C | 0% | 0hPa | 0V | 00:00:00 | 00:00:00 | 00:00:00 | |
| RDZBGO | 2026-09-02 23:54:28 | 41.65507 | 9.01693 | 171° | 66km/h | 11933m | 4.7m/s | 0°C | 0% | 0hPa | 0V | 00:00:00 | 00:00:00 | 00:00:00 | |
| RDZ2B | 2026-09-02 23:54:19 | 41.65649 | 9.01631 | 162° | 66km/h | 11899m | 2.7m/s | 0°C | 0% | 0hPa | 0V | 00:00:00 | 00:00:00 | 00:00:00 | |
| RDZBGO | 2026-09-02 23:54:07 | 41.65845 | 9.01540 | 159° | 69km/h | 11851m | 4.5m/s | 0°C | 0% | 0hPa | 0V | 00:00:00 | 00:00:00 | 00:00:00 | |
| RDZ2B | 2026-09-02 23:53:59 | 41.65986 | 9.01475 | 170° | 64km/h | 11819m | 3.8m/s | 0°C | 0% | 0hPa | 0V | 00:00:00 | 00:00:00 | 00:00:00 | |
| RDZBGO | 2026-09-02 23:53:47 | 41.66188 | 9.01373 | 166° | 64km/h | 11774m | 3.5m/s | 0°C | 0% | 0hPa | 0V | 00:00:00 | 00:00:00 | 00:00:00 | |
| RDZ2B | 2026-09-02 23:53:38 | 41.66340 | 9.01290 | 159° | 69km/h | 11737m | 4.7m/s | 0°C | 0% | 0hPa | 0V | 00:00:00 | 00:00:00 | 00:00:00 | |
| RDZBGO | 2026-09-02 23:53:27 | 41.66522 | 9.01191 | 156° | 73km/h | 11695m | 4.2m/s | 0°C | 0% | 0hPa | 0V | 00:00:00 | 00:00:00 | 00:00:00 | |
| RDZ2B | 2026-09-02 23:53:17 | 41.66686 | 9.01101 | 153° | 78km/h | 11656m | 3.0m/s | 0°C | 0% | 0hPa | 0V | 00:00:00 | 00:00:00 | 00:00:00 | |
| RDZBGO | 2026-09-02 23:53:06 | 41.66869 | 9.01001 | 163° | 71km/h | 11610m | 3.0m/s | 0°C | 0% | 0hPa | 0V | 00:00:00 | 00:00:00 | 00:00:00 | |
| RDZ2B | 2026-09-02 23:52:57 | 41.67021 | 9.00928 | 157° | 77km/h | 11575m | 4.2m/s | 0°C | 0% | 0hPa | 0V | 00:00:00 | 00:00:00 | 00:00:00 | |
| RDZBGO | 2026-09-02 23:52:45 | 41.67222 | 9.00827 | 155° | 68km/h | 11529m | 3.2m/s | 0°C | 0% | 0hPa | 0V | 00:00:00 | 00:00:00 | 00:00:00 | |
| RDZ2B | 2026-09-02 23:52:36 | 41.67375 | 9.00748 | 161° | 77km/h | 11492m | 2.4m/s | 0°C | 0% | 0hPa | 0V | 00:00:00 | 00:00:00 | 00:00:00 | |
| RDZBGO | 2026-09-02 23:52:24 | 41.67577 | 9.00618 | 153° | 75km/h | 11442m | 4.2m/s | 0°C | 0% | 0hPa | 0V | 00:00:00 | 00:00:00 | 00:00:00 | |
| RDZ2B | 2026-09-02 23:52:15 | 41.67726 | 9.00520 | 149° | 66km/h | 11404m | 3.6m/s | 0°C | 0% | 0hPa | 0V | 00:00:00 | 00:00:00 | 00:00:00 | |
| RDZBGO | 2026-09-02 23:52:03 | 41.67918 | 9.00387 | 150° | 69km/h | 11355m | 4.9m/s | 0°C | 0% | 0hPa | 0V | 00:00:00 | 00:00:00 | 00:00:00 | |
| RDZ2B | 2026-09-02 23:51:55 | 41.68050 | 9.00298 | 153° | 71km/h | 11321m | 4.9m/s | 0°C | 0% | 0hPa | 0V | 00:00:00 | 00:00:00 | 00:00:00 | |
| RDZBGO | 2026-09-02 23:51:42 | 41.68266 | 9.00155 | 153° | 84km/h | 11266m | 3.7m/s | 0°C | 0% | 0hPa | 0V | 00:00:00 | 00:00:00 | 00:00:00 | |
| RDZ2B | 2026-09-02 23:51:35 | 41.68382 | 9.00077 | 153° | 82km/h | 11242m | 4.7m/s | 0°C | 0% | 0hPa | 0V | 00:00:00 | 00:00:00 | 00:00:00 | |
| RDZ2B | 2026-09-02 23:51:14 | 41.68719 | 8.99818 | 145° | 73km/h | 11162m | 3.0m/s | 0°C | 0% | 0hPa | 0V | 00:00:00 | 00:00:00 | 00:00:00 | |
| RDZBGO | 2026-09-02 23:50:59 | 41.68957 | 8.99626 | 147° | 78km/h | 11104m | 4.8m/s | 0°C | 0% | 0hPa | 0V | 00:00:00 | 00:00:00 | 00:00:00 | |
| RDZ2B | 2026-09-02 23:50:54 | 41.69037 | 8.99564 | 150° | 66km/h | 11086m | 3.5m/s | 0°C | 0% | 0hPa | 0V | 00:00:00 | 00:00:00 | 00:00:00 | |
| RDZBGO | 2026-09-02 23:50:38 | 41.69276 | 8.99358 | 146° | 78km/h | 11028m | 3.9m/s | 0°C | 0% | 0hPa | 0V | 00:00:00 | 00:00:00 | 00:00:00 | |
| RDZ2B | 2026-09-02 23:50:34 | 41.69355 | 8.99292 | 147° | 77km/h | 11011m | 2.6m/s | 0°C | 0% | 0hPa | 0V | 00:00:00 | 00:00:00 | 00:00:00 | |
| RDZBGO | 2026-09-02 23:50:18 | 41.69579 | 8.99079 | 151° | 66km/h | 10954m | 3.2m/s | 0°C | 0% | 0hPa | 0V | 00:00:00 | 00:00:00 | 00:00:00 | |
| RDZ2B | 2026-09-02 23:50:12 | 41.69674 | 8.98990 | 145° | 64km/h | 10930m | 2.8m/s | 0°C | 0% | 0hPa | 0V | 00:00:00 | 00:00:00 | 00:00:00 | |
| RDZBGO | 2026-09-02 23:49:57 | 41.69919 | 8.98772 | 145° | 88km/h | 10869m | 4.1m/s | 0°C | 0% | 0hPa | 0V | 00:00:00 | 00:00:00 | 00:00:00 | |
| RDZ2B | 2026-09-02 23:49:52 | 41.69998 | 8.98690 | 150° | 89km/h | 10848m | 4.0m/s | 0°C | 0% | 0hPa | 0V | 00:00:00 | 00:00:00 | 00:00:00 | |
| RDZBGO | 2026-09-02 23:49:36 | 41.70259 | 8.98452 | 146° | 80km/h | 10783m | 5.3m/s | 0°C | 0% | 0hPa | 0V | 00:00:00 | 00:00:00 | 00:00:00 | |
| RDZ2B | 2026-09-02 23:49:31 | 41.70348 | 8.98378 | 142° | 64km/h | 10766m | 3.8m/s | 0°C | 0% | 0hPa | 0V | 00:00:00 | 00:00:00 | 00:00:00 | |
| RDZ2B | 2026-09-02 23:49:11 | 41.70679 | 8.98073 | 159° | 78km/h | 10681m | 3.7m/s | 0°C | 0% | 0hPa | 0V | 00:00:00 | 00:00:00 | 00:00:00 | |
| RDZBGO | 2026-09-02 23:48:53 | 41.70969 | 8.97814 | 132° | 84km/h | 10612m | 5.2m/s | 0°C | 0% | 0hPa | 0V | 00:00:00 | 00:00:00 | 00:00:00 | |
| RDZ2B | 2026-09-02 23:48:50 | 41.71016 | 8.97757 | 150° | 80km/h | 10599m | 6.3m/s | 0°C | 0% | 0hPa | 0V | 00:00:00 | 00:00:00 | 00:00:00 | |
| RDZBGO | 2026-09-02 23:48:32 | 41.71310 | 8.97485 | 150° | 84km/h | 10510m | 5.6m/s | 0°C | 0% | 0hPa | 0V | 00:00:00 | 00:00:00 | 00:00:00 | |
| RDZ2B | 2026-09-02 23:48:30 | 41.71350 | 8.97457 | 154° | 91km/h | 10500m | 5.7m/s | 0°C | 0% | 0hPa | 0V | 00:00:00 | 00:00:00 | 00:00:00 | |
| RDZBGO | 2026-09-02 23:48:12 | 41.71656 | 8.97168 | 140° | 77km/h | 10415m | 5.1m/s | 0°C | 0% | 0hPa | 0V | 00:00:00 | 00:00:00 | 00:00:00 | |
| RDZ2B | 2026-09-02 23:48:10 | 41.71687 | 8.97136 | 147° | 80km/h | 10405m | 4.6m/s | 0°C | 0% | 0hPa | 0V | 00:00:00 | 00:00:00 | 00:00:00 | |
| RDZBGO | 2026-09-02 23:47:52 | 41.71997 | 8.96860 | 146° | 68km/h | 10319m | 3.0m/s | 0°C | 0% | 0hPa | 0V | 00:00:00 | 00:00:00 | 00:00:00 | |
| RDZ2B | 2026-09-02 23:47:49 | 41.72048 | 8.96823 | 154° | 89km/h | 10304m | 6.9m/s | 0°C | 0% | 0hPa | 0V | 00:00:00 | 00:00:00 | 00:00:00 | |
| RDZBGO | 2026-09-02 23:47:31 | 41.72347 | 8.96570 | 163° | 71km/h | 10225m | 4.2m/s | 0°C | 0% | 0hPa | 0V | 00:00:00 | 00:00:00 | 00:00:00 | |
| RDZ2B | 2026-09-02 23:47:28 | 41.72393 | 8.96545 | 154° | 69km/h | 10207m | 6.4m/s | 0°C | 0% | 0hPa | 0V | 00:00:00 | 00:00:00 | 00:00:00 | |
| RDZBGO | 2026-09-02 23:47:11 | 41.72667 | 8.96345 | 147° | 66km/h | 10122m | 4.3m/s | 0°C | 0% | 0hPa | 0V | 00:00:00 | 00:00:00 | 00:00:00 | |
| RDZ2B | 2026-09-02 23:47:07 | 41.72742 | 8.96302 | 156° | 82km/h | 10104m | 2.5m/s | 0°C | 0% | 0hPa | 0V | 00:00:00 | 00:00:00 | 00:00:00 | |
| RDZBGO | 2026-09-02 23:46:50 | 41.73006 | 8.96125 | 157° | 78km/h | 10008m | 6.7m/s | 0°C | 0% | 0hPa | 0V | 00:00:00 | 00:00:00 | 00:00:00 | |
| RDZ2B | 2026-09-02 23:46:46 | 41.73074 | 8.96083 | 153° | 73km/h | 9988m | 5.3m/s | 0°C | 0% | 0hPa | 0V | 00:00:00 | 00:00:00 | 00:00:00 | |
| RDZBGO | 2026-09-02 23:46:30 | 41.73343 | 8.95909 | 151° | 58km/h | 9898m | 5.2m/s | 0°C | 0% | 0hPa | 0V | 00:00:00 | 00:00:00 | 00:00:00 | |
| RDZ2B | 2026-09-02 23:46:25 | 41.73394 | 8.95881 | 165° | 62km/h | 9880m | 7.9m/s | 0°C | 0% | 0hPa | 0V | 00:00:00 | 00:00:00 | 00:00:00 | |
| RDZBGO | 2026-09-02 23:46:09 | 41.73644 | 8.95742 | 160° | 80km/h | 9801m | 5.6m/s | 0°C | 0% | 0hPa | 0V | 00:00:00 | 00:00:00 | 00:00:00 | |
| RDZ2B | 2026-09-02 23:46:04 | 41.73717 | 8.95704 | 151° | 69km/h | 9777m | 5.8m/s | 0°C | 0% | 0hPa | 0V | 00:00:00 | 00:00:00 | 00:00:00 | |
| RDZBGO | 2026-09-02 23:45:49 | 41.73951 | 8.95558 | 155° | 75km/h | 9708m | 5.4m/s | 0°C | 0% | 0hPa | 0V | 00:00:00 | 00:00:00 | 00:00:00 | |
| RDZ2B | 2026-09-02 23:45:44 | 41.74030 | 8.95506 | 158° | 62km/h | 9683m | 5.3m/s | 0°C | 0% | 0hPa | 0V | 00:00:00 | 00:00:00 | 00:00:00 | |
| RDZBGO | 2026-09-02 23:45:28 | 41.74284 | 8.95350 | 161° | 77km/h | 9609m | 4.6m/s | 0°C | 0% | 0hPa | 0V | 00:00:00 | 00:00:00 | 00:00:00 | |
| RDZ2B | 2026-09-02 23:45:23 | 41.74351 | 8.95295 | 156° | 75km/h | 9585m | 4.7m/s | 0°C | 0% | 0hPa | 0V | 00:00:00 | 00:00:00 | 00:00:00 | |
| RDZBGO | 2026-09-02 23:45:08 | 41.74581 | 8.95160 | 153° | 58km/h | 9511m | 3.2m/s | 0°C | 0% | 0hPa | 0V | 00:00:00 | 00:00:00 | 00:00:00 | |
| RDZBGO | 2026-09-02 23:44:47 | 41.74896 | 8.94946 | 161° | 69km/h | 9406m | 4.0m/s | 0°C | 0% | 0hPa | 0V | 00:00:00 | 00:00:00 | 00:00:00 | |
| RDZ2B | 2026-09-02 23:44:42 | 41.74969 | 8.94914 | 143° | 55km/h | 9379m | 4.7m/s | 0°C | 0% | 0hPa | 0V | 00:00:00 | 00:00:00 | 00:00:00 | |
| RDZBGO | 2026-09-02 23:44:26 | 41.75211 | 8.94754 | 149° | 55km/h | 9293m | 5.3m/s | 0°C | 0% | 0hPa | 0V | 00:00:00 | 00:00:00 | 00:00:00 | |
| RDZ2B | 2026-09-02 23:44:22 | 41.75254 | 8.94720 | 150° | 66km/h | 9274m | 5.0m/s | 0°C | 0% | 0hPa | 0V | 00:00:00 | 00:00:00 | 00:00:00 | |
| RDZBGO | 2026-09-02 23:44:06 | 41.75499 | 8.94561 | 146° | 69km/h | 9191m | 3.0m/s | 0°C | 0% | 0hPa | 0V | 00:00:00 | 00:00:00 | 00:00:00 | |
| RDZ2B | 2026-09-02 23:44:00 | 41.75592 | 8.94504 | 142° | 66km/h | 9163m | 4.9m/s | 0°C | 0% | 0hPa | 0V | 00:00:00 | 00:00:00 | 00:00:00 | |
| RDZBGO | 2026-09-02 23:43:45 | 41.75807 | 8.94365 | 161° | 66km/h | 9100m | 4.3m/s | 0°C | 0% | 0hPa | 0V | 00:00:00 | 00:00:00 | 00:00:00 | |
| RDZ2B | 2026-09-02 23:43:39 | 41.75890 | 8.94301 | 159° | 47km/h | 9075m | 3.8m/s | 0°C | 0% | 0hPa | 0V | 00:00:00 | 00:00:00 | 00:00:00 | |
| RDZBGO | 2026-09-02 23:43:24 | 41.76106 | 8.94164 | 152° | 66km/h | 9008m | 5.0m/s | 0°C | 0% | 0hPa | 0V | 00:00:00 | 00:00:00 | 00:00:00 | |
| RDZ2B | 2026-09-02 23:43:18 | 41.76193 | 8.94102 | 170° | 64km/h | 8979m | 3.6m/s | 0°C | 0% | 0hPa | 0V | 00:00:00 | 00:00:00 | 00:00:00 | |
| RDZBGO | 2026-09-02 23:43:04 | 41.76395 | 8.93971 | 148° | 73km/h | 8921m | 8.8m/s | 0°C | 0% | 0hPa | 0V | 00:00:00 | 00:00:00 | 00:00:00 | |
| RDZ2B | 2026-09-02 23:42:58 | 41.76488 | 8.93921 | 148° | 62km/h | 8879m | 4.5m/s | 0°C | 0% | 0hPa | 0V | 00:00:00 | 00:00:00 | 00:00:00 | |
| RDZBGO | 2026-09-02 23:42:43 | 41.76708 | 8.93793 | 169° | 60km/h | 8808m | 3.6m/s | 0°C | 0% | 0hPa | 0V | 00:00:00 | 00:00:00 | 00:00:00 | |
| RDZ2B | 2026-09-02 23:42:37 | 41.76800 | 8.93752 | 170° | 47km/h | 8783m | 4.2m/s | 0°C | 0% | 0hPa | 0V | 00:00:00 | 00:00:00 | 00:00:00 | |
| RDZBGO | 2026-09-02 23:42:22 | 41.77040 | 8.93662 | 168° | 64km/h | 8716m | 5.8m/s | 0°C | 0% | 0hPa | 0V | 00:00:00 | 00:00:00 | 00:00:00 | |
| RDZ2B | 2026-09-02 23:42:16 | 41.77125 | 8.93618 | 177° | 58km/h | 8679m | 5.0m/s | 0°C | 0% | 0hPa | 0V | 00:00:00 | 00:00:00 | 00:00:00 | |
| RDZBGO | 2026-09-02 23:42:02 | 41.77327 | 8.93546 | 164° | 71km/h | 8602m | 5.6m/s | 0°C | 0% | 0hPa | 0V | 00:00:00 | 00:00:00 | 00:00:00 | |
| RDZ2B | 2026-09-02 23:41:56 | 41.77418 | 8.93493 | 176° | 51km/h | 8575m | 3.8m/s | 0°C | 0% | 0hPa | 0V | 00:00:00 | 00:00:00 | 00:00:00 | |
| RDZBGO | 2026-09-02 23:41:42 | 41.77628 | 8.93404 | 154° | 49km/h | 8504m | 5.3m/s | 0°C | 0% | 0hPa | 0V | 00:00:00 | 00:00:00 | 00:00:00 | |
| RDZ2B | 2026-09-02 23:41:34 | 41.77732 | 8.93328 | 164° | 55km/h | 8458m | 5.2m/s | 0°C | 0% | 0hPa | 0V | 00:00:00 | 00:00:00 | 00:00:00 | |
| RDZBGO | 2026-09-02 23:41:21 | 41.77930 | 8.93211 | 158° | 66km/h | 8386m | 4.6m/s | 0°C | 0% | 0hPa | 0V | 00:00:00 | 00:00:00 | 00:00:00 | |
| RDZ2B | 2026-09-02 23:41:12 | 41.78068 | 8.93132 | 154° | 68km/h | 8342m | 2.3m/s | 0°C | 0% | 0hPa | 0V | 00:00:00 | 00:00:00 | 00:00:00 | |
| RDZBGO | 2026-09-02 23:41:01 | 41.78222 | 8.93033 | 148° | 46km/h | 8287m | 3.3m/s | 0°C | 0% | 0hPa | 0V | 00:00:00 | 00:00:00 | 00:00:00 | |
| RDZBGO | 2026-09-02 23:40:40 | 41.78510 | 8.92828 | 145° | 68km/h | 8171m | 4.3m/s | 0°C | 0% | 0hPa | 0V | 00:00:00 | 00:00:00 | 00:00:00 | |
| RDZ2B | 2026-09-02 23:40:28 | 41.78687 | 8.92686 | 159° | 75km/h | 8112m | 7.9m/s | 0°C | 0% | 0hPa | 0V | 00:00:00 | 00:00:00 | 00:00:00 | |
| RDZBGO | 2026-09-02 23:40:19 | 41.78815 | 8.92585 | 141° | 75km/h | 8064m | 2.6m/s | 0°C | 0% | 0hPa | 0V | 00:00:00 | 00:00:00 | 00:00:00 | |
| RDZ2B | 2026-09-02 23:40:06 | 41.78991 | 8.92443 | 150° | 68km/h | 8004m | 3.3m/s | 0°C | 0% | 0hPa | 0V | 00:00:00 | 00:00:00 | 00:00:00 | |
| RDZBGO | 2026-09-02 23:39:58 | 41.79100 | 8.92375 | 153° | 51km/h | 7963m | 5.7m/s | 0°C | 0% | 0hPa | 0V | 00:00:00 | 00:00:00 | 00:00:00 | |
| RDZ2B | 2026-09-02 23:39:41 | 41.79345 | 8.92230 | 159° | 62km/h | 7877m | 5.7m/s | 0°C | 0% | 0hPa | 0V | 00:00:00 | 00:00:00 | 00:00:00 | |
| RDZBGO | 2026-09-02 23:39:37 | 41.79392 | 8.92198 | 145° | 58km/h | 7855m | 2.7m/s | 0°C | 0% | 0hPa | 0V | 00:00:00 | 00:00:00 | 00:00:00 | |
| RDZ2B | 2026-09-02 23:39:19 | 41.79638 | 8.92022 | 142° | 60km/h | 7759m | 5.2m/s | 0°C | 0% | 0hPa | 0V | 00:00:00 | 00:00:00 | 00:00:00 | |
| RDZBGO | 2026-09-02 23:39:17 | 41.79662 | 8.91994 | 144° | 66km/h | 7748m | 4.3m/s | 0°C | 0% | 0hPa | 0V | 00:00:00 | 00:00:00 | 00:00:00 | |
| RDZBGO | 2026-09-02 23:38:56 | 41.79954 | 8.91762 | 140° | 49km/h | 7651m | 5.8m/s | 0°C | 0% | 0hPa | 0V | 00:00:00 | 00:00:00 | 00:00:00 | |
| RDZ2B | 2026-09-02 23:38:43 | 41.80130 | 8.91612 | 156° | 60km/h | 7585m | 3.9m/s | 0°C | 0% | 0hPa | 0V | 00:00:00 | 00:00:00 | 00:00:00 | |
| RDZBGO | 2026-09-02 23:38:36 | 41.80230 | 8.91525 | 156° | 71km/h | 7552m | 2.8m/s | 0°C | 0% | 0hPa | 0V | 00:00:00 | 00:00:00 | 00:00:00 | |
| RDZBGO | 2026-09-02 23:38:15 | 41.80518 | 8.91288 | 148° | 64km/h | 7442m | 6.8m/s | 0°C | 0% | 0hPa | 0V | 00:00:00 | 00:00:00 | 00:00:00 | |
| RDZBGO | 2026-09-02 23:37:54 | 41.80830 | 8.91014 | 149° | 71km/h | 7336m | 6.0m/s | 0°C | 0% | 0hPa | 0V | 00:00:00 | 00:00:00 | 00:00:00 | |
| RDZ2B | 2026-09-02 23:37:46 | 41.80961 | 8.90900 | 143° | 55km/h | 7292m | 7.7m/s | 0°C | 0% | 0hPa | 0V | 00:00:00 | 00:00:00 | 00:00:00 | |
| RDZBGO | 2026-09-02 23:37:33 | 41.81144 | 8.90708 | 141° | 80km/h | 7219m | 1.5m/s | 0°C | 0% | 0hPa | 0V | 00:00:00 | 00:00:00 | 00:00:00 | |
| RDZ2B | 2026-09-02 23:37:23 | 41.81303 | 8.90568 | 143° | 75km/h | 7160m | 5.2m/s | 0°C | 0% | 0hPa | 0V | 00:00:00 | 00:00:00 | 00:00:00 | |
| RDZBGO | 2026-09-02 23:37:13 | 41.81455 | 8.90436 | 152° | 66km/h | 7104m | 5.2m/s | 0°C | 0% | 0hPa | 0V | 00:00:00 | 00:00:00 | 00:00:00 | |
| RDZBGO | 2026-09-02 23:36:52 | 41.81747 | 8.90130 | 152° | 80km/h | 6981m | 7.1m/s | 0°C | 0% | 0hPa | 0V | 00:00:00 | 00:00:00 | 00:00:00 | |
| RDZ2B | 2026-09-02 23:36:40 | 41.81924 | 8.89942 | 139° | 88km/h | 6920m | 3.9m/s | 0°C | 0% | 0hPa | 0V | 00:00:00 | 00:00:00 | 00:00:00 | |
| RDZ2B | 2026-09-02 23:36:12 | 41.82352 | 8.89487 | 141° | 88km/h | 6765m | 3.5m/s | 0°C | 0% | 0hPa | 0V | 00:00:00 | 00:00:00 | 00:00:00 |